<?xml version='1.0' encoding='UTF-8'?><gpx version="1.1" creator="JPX - https://github.com/jenetics/jpx" xmlns="http://www.topografix.com/GPX/1/1"><trk><trkseg><trkpt lat="44.19819002432165" lon="11.471957637215171"><ele>738.6666666666667</ele><time>2026-04-04T10:20:24.007Z</time></trkpt><trkpt lat="44.19809051206142" lon="11.47199190425313"><ele>741.3333333333334</ele><time>2026-04-04T10:20:30.005Z</time></trkpt><trkpt lat="44.198007665003" lon="11.472003324330533"><ele>744.0</ele><time>2026-04-04T10:20:39.002Z</time></trkpt><trkpt lat="44.1979354505338" lon="11.471992038971093"><ele>746.6666666666666</ele><time>2026-04-04T10:20:45.001Z</time></trkpt><trkpt lat="44.197867650019845" lon="11.471972879688035"><ele>749.3333333333333</ele><time>2026-04-04T10:20:51Z</time></trkpt><trkpt lat="44.19779677244092" lon="11.47196147803488"><ele>752.0</ele><time>2026-04-04T10:20:57.999Z</time></trkpt><trkpt lat="44.19773127429247" lon="11.471980507598325"><ele>752.0</ele><time>2026-04-04T10:21:04.999Z</time></trkpt><trkpt lat="44.197666861307454" lon="11.471924404469005"><ele>752.0</ele><time>2026-04-04T10:21:14.999Z</time></trkpt><trkpt lat="44.19759928804136" lon="11.471954053385513"><ele>752.0</ele><time>2026-04-04T10:21:20.998Z</time></trkpt><trkpt lat="44.197536406768485" lon="11.471945481944617"><ele>752.0</ele><time>2026-04-04T10:21:26.998Z</time></trkpt><trkpt lat="44.197468991307474" lon="11.471943679774109"><ele>752.0</ele><time>2026-04-04T10:21:33.998Z</time></trkpt><trkpt lat="44.19739561677857" lon="11.471941223119462"><ele>752.0</ele><time>2026-04-04T10:21:41.998Z</time></trkpt><trkpt lat="44.19732557251179" lon="11.471958487214033"><ele>752.0</ele><time>2026-04-04T10:21:47.998Z</time></trkpt><trkpt lat="44.19726669068606" lon="11.471995512976163"><ele>754.8571428571429</ele><time>2026-04-04T10:21:53.998Z</time></trkpt><trkpt lat="44.19719860690019" lon="11.471978290824383"><ele>757.7142857142857</ele><time>2026-04-04T10:21:59.998Z</time></trkpt><trkpt lat="44.19713506385907" lon="11.471976938106652"><ele>760.5714285714287</ele><time>2026-04-04T10:22:05.998Z</time></trkpt><trkpt lat="44.19706895299685" lon="11.471984765143839"><ele>763.4285714285714</ele><time>2026-04-04T10:22:12.998Z</time></trkpt><trkpt lat="44.19700663202043" lon="11.471931845234028"><ele>766.2857142857143</ele><time>2026-04-04T10:22:21.999Z</time></trkpt><trkpt lat="44.1969480766541" lon="11.471883154401603"><ele>769.1428571428572</ele><time>2026-04-04T10:22:28.999Z</time></trkpt><trkpt lat="44.19689673147018" lon="11.4718248188995"><ele>772.0</ele><time>2026-04-04T10:22:34.999Z</time></trkpt><trkpt lat="44.19684157147025" lon="11.471758663870089"><ele>772.0000000000001</ele><time>2026-04-04T10:22:41.999Z</time></trkpt><trkpt lat="44.19678803683173" lon="11.471701542245668"><ele>772.0</ele><time>2026-04-04T10:22:48.999Z</time></trkpt><trkpt lat="44.19672705499622" lon="11.47166136885299"><ele>772.0</ele><time>2026-04-04T10:22:55.999Z</time></trkpt><trkpt lat="44.19667740951937" lon="11.471602470735327"><ele>772.0</ele><time>2026-04-04T10:23:02.999Z</time></trkpt><trkpt lat="44.19664423897208" lon="11.471512799798157"><ele>772.0</ele><time>2026-04-04T10:23:10.999Z</time></trkpt><trkpt lat="44.19659990377482" lon="11.471427886004788"><ele>772.0000000000001</ele><time>2026-04-04T10:23:18.999Z</time></trkpt><trkpt lat="44.19657423341431" lon="11.471332231224412"><ele>772.0</ele><time>2026-04-04T10:23:27.999Z</time></trkpt><trkpt lat="44.196527685427995" lon="11.471263889770285"><ele>774.8571428571429</ele><time>2026-04-04T10:23:34.999Z</time></trkpt><trkpt lat="44.19647246049889" lon="11.471210431805478"><ele>777.7142857142858</ele><time>2026-04-04T10:23:49.999Z</time></trkpt><trkpt lat="44.19642256990199" lon="11.471153536385396"><ele>780.5714285714287</ele><time>2026-04-04T10:23:54.999Z</time></trkpt><trkpt lat="44.19637818503919" lon="11.471090587920038"><ele>783.4285714285714</ele><time>2026-04-04T10:23:59.999Z</time></trkpt><trkpt lat="44.19632707049918" lon="11.471034935404488"><ele>786.2857142857142</ele><time>2026-04-04T10:24:04.999Z</time></trkpt><trkpt lat="44.19627601847551" lon="11.470981830280515"><ele>789.1428571428572</ele><time>2026-04-04T10:24:10.999Z</time></trkpt><trkpt lat="44.19622652481725" lon="11.470922308063932"><ele>792.0</ele><time>2026-04-04T10:24:16.999Z</time></trkpt><trkpt lat="44.19617382890957" lon="11.470856152032038"><ele>792.0</ele><time>2026-04-04T10:24:23Z</time></trkpt><trkpt lat="44.1961256296457" lon="11.470784507529373"><ele>792.0</ele><time>2026-04-04T10:24:29Z</time></trkpt><trkpt lat="44.19606414515822" lon="11.470748548884876"><ele>792.0</ele><time>2026-04-04T10:24:35Z</time></trkpt><trkpt lat="44.196000565723295" lon="11.470698142040662"><ele>792.0</ele><time>2026-04-04T10:24:41Z</time></trkpt><trkpt lat="44.19593954505145" lon="11.470673355273039"><ele>792.0</ele><time>2026-04-04T10:24:46Z</time></trkpt><trkpt lat="44.19587646839856" lon="11.470627581610335"><ele>792.0</ele><time>2026-04-04T10:24:52Z</time></trkpt><trkpt lat="44.19581644803445" lon="11.470594333237718"><ele>792.0</ele><time>2026-04-04T10:24:58Z</time></trkpt><trkpt lat="44.195750629772654" lon="11.470544524000704"><ele>792.0</ele><time>2026-04-04T10:25:04Z</time></trkpt><trkpt lat="44.195686493985235" lon="11.470498521211285"><ele>792.0</ele><time>2026-04-04T10:25:09.999Z</time></trkpt><trkpt lat="44.19562319481446" lon="11.470474889335717"><ele>792.0</ele><time>2026-04-04T10:25:14.999Z</time></trkpt><trkpt lat="44.1955604952884" lon="11.470442863008918"><ele>792.0</ele><time>2026-04-04T10:25:19.999Z</time></trkpt><trkpt lat="44.19550452251997" lon="11.470393945633388"><ele>792.0</ele><time>2026-04-04T10:25:24.999Z</time></trkpt><trkpt lat="44.195442189382554" lon="11.47036215486162"><ele>792.0</ele><time>2026-04-04T10:25:29.999Z</time></trkpt><trkpt lat="44.1953775816342" lon="11.470339115031484"><ele>792.0</ele><time>2026-04-04T10:25:35.999Z</time></trkpt><trkpt lat="44.19531880381026" lon="11.470295401537186"><ele>792.2857142857143</ele><time>2026-04-04T10:25:41.999Z</time></trkpt><trkpt lat="44.1952584155542" lon="11.470337879600775"><ele>792.5714285714286</ele><time>2026-04-04T10:25:46.999Z</time></trkpt><trkpt lat="44.195199477287325" lon="11.470374037637683"><ele>792.8571428571429</ele><time>2026-04-04T10:25:52.999Z</time></trkpt><trkpt lat="44.19513425251185" lon="11.47038828555132"><ele>793.1428571428571</ele><time>2026-04-04T10:25:58.999Z</time></trkpt><trkpt lat="44.1950606686831" lon="11.470410771685414"><ele>793.4285714285713</ele><time>2026-04-04T10:26:03.999Z</time></trkpt><trkpt lat="44.19499786148955" lon="11.47047144298779"><ele>793.7142857142857</ele><time>2026-04-04T10:26:08.999Z</time></trkpt><trkpt lat="44.19495901819648" lon="11.47055292056208"><ele>794.0</ele><time>2026-04-04T10:26:13.999Z</time></trkpt><trkpt lat="44.1949245140007" lon="11.470629508847697"><ele>794.0</ele><time>2026-04-04T10:26:19.999Z</time></trkpt><trkpt lat="44.19490150028509" lon="11.470716925172914"><ele>794.0</ele><time>2026-04-04T10:26:25Z</time></trkpt><trkpt lat="44.1948563100008" lon="11.470799830039265"><ele>794.0</ele><time>2026-04-04T10:26:33Z</time></trkpt><trkpt lat="44.19480384123393" lon="11.470851913316839"><ele>794.0</ele><time>2026-04-04T10:26:38Z</time></trkpt><trkpt lat="44.19473906489361" lon="11.470864037516861"><ele>794.0</ele><time>2026-04-04T10:26:43Z</time></trkpt><trkpt lat="44.19466924249202" lon="11.470850189070955"><ele>794.0</ele><time>2026-04-04T10:26:48Z</time></trkpt><trkpt lat="44.19459489890374" lon="11.470848631106378"><ele>794.0</ele><time>2026-04-04T10:26:53Z</time></trkpt><trkpt lat="44.19452147411432" lon="11.470845999448233"><ele>792.4285714285714</ele><time>2026-04-04T10:27:00Z</time></trkpt><trkpt lat="44.19445846671413" lon="11.47083359080273"><ele>790.8571428571429</ele><time>2026-04-04T10:27:05Z</time></trkpt><trkpt lat="44.194395400239905" lon="11.470803235747198"><ele>789.2857142857142</ele><time>2026-04-04T10:27:10Z</time></trkpt><trkpt lat="44.19434242201396" lon="11.47075427775823"><ele>787.7142857142858</ele><time>2026-04-04T10:27:15Z</time></trkpt><trkpt lat="44.194268270768" lon="11.47073573568525"><ele>786.1428571428572</ele><time>2026-04-04T10:27:21Z</time></trkpt><trkpt lat="44.19420218850209" lon="11.470725668758561"><ele>784.5714285714286</ele><time>2026-04-04T10:27:26Z</time></trkpt><trkpt lat="44.194131843130094" lon="11.470734812410106"><ele>783.0</ele><time>2026-04-04T10:27:31Z</time></trkpt><trkpt lat="44.194068200297956" lon="11.470737445346696"><ele>780.1428571428571</ele><time>2026-04-04T10:27:36Z</time></trkpt><trkpt lat="44.194001243328344" lon="11.470778679237945"><ele>777.2857142857143</ele><time>2026-04-04T10:27:42Z</time></trkpt><trkpt lat="44.19397849163735" lon="11.470874736960392"><ele>774.4285714285714</ele><time>2026-04-04T10:27:47.999Z</time></trkpt><trkpt lat="44.193919657617016" lon="11.470916791516338"><ele>771.5714285714286</ele><time>2026-04-04T10:27:52.999Z</time></trkpt><trkpt lat="44.19386017833478" lon="11.470967600278197"><ele>768.7142857142858</ele><time>2026-04-04T10:27:58.999Z</time></trkpt><trkpt lat="44.193789634662416" lon="11.470986135768795"><ele>765.8571428571429</ele><time>2026-04-04T10:28:04.999Z</time></trkpt><trkpt lat="44.19372395613668" lon="11.470991535707878"><ele>763.0</ele><time>2026-04-04T10:28:09.999Z</time></trkpt><trkpt lat="44.19365430398614" lon="11.470983175208367"><ele>763.0</ele><time>2026-04-04T10:28:15.999Z</time></trkpt><trkpt lat="44.19358830912044" lon="11.470959522069846"><ele>763.0</ele><time>2026-04-04T10:28:30Z</time></trkpt><trkpt lat="44.19351483091465" lon="11.470972175977304"><ele>763.0</ele><time>2026-04-04T10:28:36Z</time></trkpt><trkpt lat="44.19345068572541" lon="11.471019049747067"><ele>763.0</ele><time>2026-04-04T10:28:42Z</time></trkpt><trkpt lat="44.193387728053274" lon="11.471035056493841"><ele>763.0</ele><time>2026-04-04T10:28:48Z</time></trkpt><trkpt lat="44.19334135214645" lon="11.471103210118567"><ele>763.0</ele><time>2026-04-04T10:29:10Z</time></trkpt><trkpt lat="44.19327457100472" lon="11.471133194194474"><ele>763.0</ele><time>2026-04-04T10:29:16Z</time></trkpt><trkpt lat="44.19319873138232" lon="11.471130707984258"><ele>762.2857142857143</ele><time>2026-04-04T10:29:22Z</time></trkpt><trkpt lat="44.193134276012536" lon="11.471130567728753"><ele>761.5714285714286</ele><time>2026-04-04T10:29:27Z</time></trkpt><trkpt lat="44.193064166743454" lon="11.471119601396726"><ele>760.8571428571429</ele><time>2026-04-04T10:29:33Z</time></trkpt><trkpt lat="44.19299908742831" lon="11.471116980141943"><ele>760.1428571428571</ele><time>2026-04-04T10:29:38Z</time></trkpt><trkpt lat="44.19292841614055" lon="11.471127454060555"><ele>759.4285714285714</ele><time>2026-04-04T10:29:42.999Z</time></trkpt><trkpt lat="44.192867483437325" lon="11.471157311031309"><ele>758.7142857142858</ele><time>2026-04-04T10:29:47.999Z</time></trkpt><trkpt lat="44.192796308770156" lon="11.471199298956602"><ele>758.0</ele><time>2026-04-04T10:30:04.999Z</time></trkpt><trkpt lat="44.19272901640876" lon="11.471165388266172"><ele>758.0000000000001</ele><time>2026-04-04T10:30:10.999Z</time></trkpt><trkpt lat="44.19266369683444" lon="11.471179787569731"><ele>758.0</ele><time>2026-04-04T10:30:15.999Z</time></trkpt><trkpt lat="44.192597495604396" lon="11.471225417055031"><ele>758.0</ele><time>2026-04-04T10:30:21.999Z</time></trkpt><trkpt lat="44.19252961748818" lon="11.471239411301514"><ele>758.0</ele><time>2026-04-04T10:30:28.999Z</time></trkpt><trkpt lat="44.19246284933432" lon="11.471264481735513"><ele>758.0</ele><time>2026-04-04T10:30:35Z</time></trkpt><trkpt lat="44.19241382246284" lon="11.471320011296832"><ele>758.0000000000001</ele><time>2026-04-04T10:30:42Z</time></trkpt><trkpt lat="44.192352428122305" lon="11.471369310953586"><ele>758.0</ele><time>2026-04-04T10:30:48Z</time></trkpt><trkpt lat="44.19229993650508" lon="11.471428006094317"><ele>762.7142857142858</ele><time>2026-04-04T10:30:54Z</time></trkpt><trkpt lat="44.19223176094807" lon="11.471464260741683"><ele>767.4285714285714</ele><time>2026-04-04T10:31:01Z</time></trkpt><trkpt lat="44.192167042569174" lon="11.47148213548317"><ele>772.1428571428571</ele><time>2026-04-04T10:31:07Z</time></trkpt><trkpt lat="44.192104020319185" lon="11.471488209140857"><ele>776.8571428571429</ele><time>2026-04-04T10:33:04Z</time></trkpt><trkpt lat="44.19203072740209" lon="11.471519983901512"><ele>781.5714285714286</ele><time>2026-04-04T10:33:10Z</time></trkpt><trkpt lat="44.19196732695516" lon="11.471556298244648"><ele>786.2857142857143</ele><time>2026-04-04T10:33:15Z</time></trkpt><trkpt lat="44.19190493966112" lon="11.471572302976924"><ele>791.0</ele><time>2026-04-04T10:33:20Z</time></trkpt><trkpt lat="44.19184719315788" lon="11.471623386281752"><ele>791.0</ele><time>2026-04-04T10:33:25Z</time></trkpt><trkpt lat="44.19178009599533" lon="11.471652877153778"><ele>791.0</ele><time>2026-04-04T10:33:31Z</time></trkpt><trkpt lat="44.19171886142984" lon="11.471691336647163"><ele>791.0</ele><time>2026-04-04T10:33:38Z</time></trkpt><trkpt lat="44.191661193389415" lon="11.47174028464217"><ele>791.0</ele><time>2026-04-04T10:33:45Z</time></trkpt><trkpt lat="44.191607454181295" lon="11.471789000464957"><ele>791.0</ele><time>2026-04-04T10:33:51Z</time></trkpt><trkpt lat="44.19154994570101" lon="11.471846296213387"><ele>791.0</ele><time>2026-04-04T10:33:59.999Z</time></trkpt><trkpt lat="44.19149072243841" lon="11.471877220501419"><ele>791.0</ele><time>2026-04-04T10:34:06.999Z</time></trkpt><trkpt lat="44.191428792689656" lon="11.471918688037258"><ele>794.5714285714286</ele><time>2026-04-04T10:34:12.999Z</time></trkpt><trkpt lat="44.19138228493923" lon="11.47198992099507"><ele>798.1428571428571</ele><time>2026-04-04T10:34:19.999Z</time></trkpt><trkpt lat="44.19134286244544" lon="11.472077392214754"><ele>801.7142857142858</ele><time>2026-04-04T10:34:26.999Z</time></trkpt><trkpt lat="44.19131082068597" lon="11.472161209163115"><ele>805.2857142857142</ele><time>2026-04-04T10:34:32.999Z</time></trkpt><trkpt lat="44.19131138106182" lon="11.472251319114317"><ele>808.8571428571429</ele><time>2026-04-04T10:34:41.999Z</time></trkpt><trkpt lat="44.19128073598048" lon="11.472340203902553"><ele>812.4285714285714</ele><time>2026-04-04T10:34:48Z</time></trkpt><trkpt lat="44.19125496981916" lon="11.47243254517791"><ele>816.0</ele><time>2026-04-04T10:34:53Z</time></trkpt><trkpt lat="44.191183531577884" lon="11.472465525783878"><ele>816.0</ele><time>2026-04-04T10:34:59Z</time></trkpt><trkpt lat="44.19118431430509" lon="11.472565680696194"><ele>816.0</ele><time>2026-04-04T10:35:03Z</time></trkpt><trkpt lat="44.19118320492249" lon="11.472668052069485"><ele>816.0</ele><time>2026-04-04T10:35:08Z</time></trkpt><trkpt lat="44.19119987482841" lon="11.472766428547787"><ele>816.0</ele><time>2026-04-04T10:35:12Z</time></trkpt><trkpt lat="44.19119997649623" lon="11.472862055401865"><ele>816.0</ele><time>2026-04-04T10:35:17Z</time></trkpt><trkpt lat="44.19119238355373" lon="11.472953162974322"><ele>816.0</ele><time>2026-04-04T10:35:23Z</time></trkpt><trkpt lat="44.19114390800101" lon="11.473014831789442"><ele>816.0</ele><time>2026-04-04T10:35:28Z</time></trkpt><trkpt lat="44.19111205553923" lon="11.473101414239071"><ele>814.0</ele><time>2026-04-04T10:35:33Z</time></trkpt><trkpt lat="44.191072067697846" lon="11.47317270687335"><ele>812.0</ele><time>2026-04-04T10:35:37Z</time></trkpt><trkpt lat="44.1910235176069" lon="11.473242676702252"><ele>810.0</ele><time>2026-04-04T10:35:42Z</time></trkpt><trkpt lat="44.19095761375625" lon="11.473252704310918"><ele>808.0</ele><time>2026-04-04T10:35:47Z</time></trkpt><trkpt lat="44.19091102225318" lon="11.473328048247017"><ele>806.0</ele><time>2026-04-04T10:35:52Z</time></trkpt><trkpt lat="44.19086477725193" lon="11.473401487289538"><ele>804.0</ele><time>2026-04-04T10:35:56.999Z</time></trkpt><trkpt lat="44.1908392029778" lon="11.473507102284481"><ele>802.0</ele><time>2026-04-04T10:36:01.999Z</time></trkpt><trkpt lat="44.190813841164235" lon="11.473597380475981"><ele>802.0</ele><time>2026-04-04T10:36:06.999Z</time></trkpt><trkpt lat="44.19078452052697" lon="11.473679112712897"><ele>802.0</ele><time>2026-04-04T10:36:11.999Z</time></trkpt><trkpt lat="44.19076468625084" lon="11.473778811015796"><ele>802.0</ele><time>2026-04-04T10:36:16.999Z</time></trkpt><trkpt lat="44.19073898739234" lon="11.473870963744854"><ele>802.0</ele><time>2026-04-04T10:36:21.999Z</time></trkpt><trkpt lat="44.19069661788719" lon="11.473945564121436"><ele>802.0</ele><time>2026-04-04T10:36:26.999Z</time></trkpt><trkpt lat="44.19065022548579" lon="11.474005799950659"><ele>802.0</ele><time>2026-04-04T10:36:30.999Z</time></trkpt><trkpt lat="44.190613420989656" lon="11.474083990207472"><ele>802.0</ele><time>2026-04-04T10:36:35.999Z</time></trkpt><trkpt lat="44.19058459289233" lon="11.474173031909183"><ele>797.8571428571429</ele><time>2026-04-04T10:36:40.999Z</time></trkpt><trkpt lat="44.190557201926936" lon="11.474282000499153"><ele>793.7142857142858</ele><time>2026-04-04T10:36:47.999Z</time></trkpt><trkpt lat="44.19058476233225" lon="11.474368509598348"><ele>789.5714285714286</ele><time>2026-04-04T10:36:51Z</time></trkpt><trkpt lat="44.19060274695759" lon="11.47446883132071"><ele>785.4285714285714</ele><time>2026-04-04T10:36:56Z</time></trkpt><trkpt lat="44.190600570421715" lon="11.474567545207691"><ele>781.2857142857142</ele><time>2026-04-04T10:37:01Z</time></trkpt><trkpt lat="44.19062495704574" lon="11.474654275102381"><ele>777.1428571428571</ele><time>2026-04-04T10:37:06Z</time></trkpt><trkpt lat="44.19064066987316" lon="11.4747589478123"><ele>773.0</ele><time>2026-04-04T10:37:11Z</time></trkpt><trkpt lat="44.190668228647915" lon="11.474852485302199"><ele>772.7142857142857</ele><time>2026-04-04T10:37:17Z</time></trkpt><trkpt lat="44.190671011675875" lon="11.47494718349188"><ele>772.4285714285713</ele><time>2026-04-04T10:37:22Z</time></trkpt><trkpt lat="44.19067964449318" lon="11.475034758526075"><ele>772.1428571428571</ele><time>2026-04-04T10:37:27Z</time></trkpt><trkpt lat="44.19068446521336" lon="11.475122364506566"><ele>771.8571428571429</ele><time>2026-04-04T10:37:32Z</time></trkpt><trkpt lat="44.19067880126654" lon="11.475222657907636"><ele>771.5714285714286</ele><time>2026-04-04T10:37:37Z</time></trkpt><trkpt lat="44.19067416920033" lon="11.475320283282317"><ele>771.2857142857143</ele><time>2026-04-04T10:37:42Z</time></trkpt><trkpt lat="44.19063016616162" lon="11.475402292771715"><ele>771.0</ele><time>2026-04-04T10:37:47Z</time></trkpt><trkpt lat="44.1906298869548" lon="11.475497720559144"><ele>772.0</ele><time>2026-04-04T10:37:52Z</time></trkpt><trkpt lat="44.190617548764756" lon="11.475585579379477"><ele>773.0</ele><time>2026-04-04T10:37:57Z</time></trkpt><trkpt lat="44.19056051565279" lon="11.475637821571365"><ele>774.0</ele><time>2026-04-04T10:38:03Z</time></trkpt><trkpt lat="44.190490530191454" lon="11.475675185003018"><ele>775.0</ele><time>2026-04-04T10:38:09Z</time></trkpt><trkpt lat="44.19042648406882" lon="11.47571581018054"><ele>776.0</ele><time>2026-04-04T10:38:15Z</time></trkpt><trkpt lat="44.19035353371133" lon="11.47573905796525"><ele>777.0</ele><time>2026-04-04T10:38:20Z</time></trkpt><trkpt lat="44.19028487559005" lon="11.47576268279077"><ele>778.0</ele><time>2026-04-04T10:38:24.999Z</time></trkpt><trkpt lat="44.19020904928835" lon="11.475788151734479"><ele>778.0</ele><time>2026-04-04T10:38:29.999Z</time></trkpt><trkpt lat="44.190143956321684" lon="11.475811131153842"><ele>778.0</ele><time>2026-04-04T10:38:34.999Z</time></trkpt><trkpt lat="44.1900768998871" lon="11.475811962362403"><ele>778.0</ele><time>2026-04-04T10:38:39.999Z</time></trkpt><trkpt lat="44.18999981952933" lon="11.475815083423317"><ele>778.0</ele><time>2026-04-04T10:38:44.999Z</time></trkpt><trkpt lat="44.18993345973898" lon="11.47582856936119"><ele>778.0</ele><time>2026-04-04T10:38:50.999Z</time></trkpt><trkpt lat="44.18986463591032" lon="11.475816773625807"><ele>778.0</ele><time>2026-04-04T10:38:57Z</time></trkpt><trkpt lat="44.18978610765314" lon="11.4758417559299"><ele>778.0</ele><time>2026-04-04T10:39:03Z</time></trkpt><trkpt lat="44.18971919894318" lon="11.47584348646955"><ele>777.4285714285714</ele><time>2026-04-04T10:39:08Z</time></trkpt><trkpt lat="44.189650964922436" lon="11.475842602356048"><ele>776.8571428571428</ele><time>2026-04-04T10:39:14Z</time></trkpt><trkpt lat="44.189579117740045" lon="11.475827040047657"><ele>776.2857142857142</ele><time>2026-04-04T10:39:20Z</time></trkpt><trkpt lat="44.18950967535144" lon="11.475791958870067"><ele>775.7142857142858</ele><time>2026-04-04T10:39:26Z</time></trkpt><trkpt lat="44.18944906397178" lon="11.475762519838598"><ele>775.1428571428571</ele><time>2026-04-04T10:39:31Z</time></trkpt><trkpt lat="44.189391541818594" lon="11.475704089682097"><ele>774.5714285714286</ele><time>2026-04-04T10:39:36Z</time></trkpt><trkpt lat="44.18934038619118" lon="11.475633448079758"><ele>774.0</ele><time>2026-04-04T10:39:41Z</time></trkpt><trkpt lat="44.18927635306496" lon="11.475616876861405"><ele>774.0</ele><time>2026-04-04T10:39:47Z</time></trkpt><trkpt lat="44.189219460486704" lon="11.475561514978239"><ele>774.0</ele><time>2026-04-04T10:39:53Z</time></trkpt><trkpt lat="44.189161143870564" lon="11.475523820003135"><ele>774.0</ele><time>2026-04-04T10:39:58Z</time></trkpt><trkpt lat="44.18910046899631" lon="11.475469050342424"><ele>774.0</ele><time>2026-04-04T10:40:04Z</time></trkpt><trkpt lat="44.189037476204945" lon="11.47545384751474"><ele>774.0</ele><time>2026-04-04T10:40:09Z</time></trkpt><trkpt lat="44.18897399796891" lon="11.475411285769482"><ele>774.0</ele><time>2026-04-04T10:40:14Z</time></trkpt><trkpt lat="44.18890903202195" lon="11.475373995192024"><ele>774.0</ele><time>2026-04-04T10:40:19Z</time></trkpt><trkpt lat="44.18883060922854" lon="11.475360544870604"><ele>771.4285714285714</ele><time>2026-04-04T10:40:25Z</time></trkpt><trkpt lat="44.1887600132511" lon="11.475340854577611"><ele>768.8571428571429</ele><time>2026-04-04T10:40:30Z</time></trkpt><trkpt lat="44.18869289590436" lon="11.475299092466894"><ele>766.2857142857142</ele><time>2026-04-04T10:40:35Z</time></trkpt><trkpt lat="44.18862646816122" lon="11.47527260158336"><ele>763.7142857142858</ele><time>2026-04-04T10:40:40Z</time></trkpt><trkpt lat="44.18855859609615" lon="11.475237472960501"><ele>761.1428571428571</ele><time>2026-04-04T10:40:45Z</time></trkpt><trkpt lat="44.18849642505638" lon="11.475195370252868"><ele>758.5714285714286</ele><time>2026-04-04T10:40:50Z</time></trkpt><trkpt lat="44.18842249857349" lon="11.475191500804149"><ele>756.0</ele><time>2026-04-04T10:40:55Z</time></trkpt><trkpt lat="44.18836010610754" lon="11.475147006989578"><ele>756.0</ele><time>2026-04-04T10:41:01Z</time></trkpt><trkpt lat="44.18832470845247" lon="11.475070783012864"><ele>756.0</ele><time>2026-04-04T10:41:06Z</time></trkpt><trkpt lat="44.188298750716584" lon="11.474982207708672"><ele>756.0</ele><time>2026-04-04T10:41:12Z</time></trkpt><trkpt lat="44.188247987820795" lon="11.474917666417232"><ele>756.0</ele><time>2026-04-04T10:41:17Z</time></trkpt><trkpt lat="44.18818450903121" lon="11.47487103067738"><ele>756.0</ele><time>2026-04-04T10:41:22Z</time></trkpt><trkpt lat="44.18812573149448" lon="11.474831498041734"><ele>756.0</ele><time>2026-04-04T10:41:27Z</time></trkpt><trkpt lat="44.18805015379658" lon="11.474817733795629"><ele>756.0</ele><time>2026-04-04T10:41:32Z</time></trkpt><trkpt lat="44.18798649014548" lon="11.474778928845913"><ele>753.1428571428571</ele><time>2026-04-04T10:41:37Z</time></trkpt><trkpt lat="44.18793916164471" lon="11.474719364813215"><ele>750.2857142857142</ele><time>2026-04-04T10:41:43Z</time></trkpt><trkpt lat="44.18790550515337" lon="11.474641828903215"><ele>747.4285714285714</ele><time>2026-04-04T10:41:48Z</time></trkpt><trkpt lat="44.187849447852265" lon="11.47458014104658"><ele>744.5714285714286</ele><time>2026-04-04T10:41:54Z</time></trkpt><trkpt lat="44.187803449973266" lon="11.474511039850388"><ele>741.7142857142857</ele><time>2026-04-04T10:42:00Z</time></trkpt><trkpt lat="44.187745865453124" lon="11.474471475468878"><ele>738.8571428571429</ele><time>2026-04-04T10:42:05Z</time></trkpt><trkpt lat="44.18769738234404" lon="11.474401685766628"><ele>736.0</ele><time>2026-04-04T10:42:11Z</time></trkpt><trkpt lat="44.1876614300708" lon="11.474315722639647"><ele>736.0</ele><time>2026-04-04T10:42:16Z</time></trkpt><trkpt lat="44.18762719034537" lon="11.474230069936164"><ele>736.0</ele><time>2026-04-04T10:42:21Z</time></trkpt><trkpt lat="44.18757846051141" lon="11.474156876535949"><ele>736.0</ele><time>2026-04-04T10:42:26Z</time></trkpt><trkpt lat="44.18753320984568" lon="11.47407245356984"><ele>736.0</ele><time>2026-04-04T10:42:32Z</time></trkpt><trkpt lat="44.18749838996332" lon="11.47399378155936"><ele>736.0</ele><time>2026-04-04T10:42:37Z</time></trkpt><trkpt lat="44.18746426444744" lon="11.473894194789676"><ele>736.0</ele><time>2026-04-04T10:42:43Z</time></trkpt><trkpt lat="44.1874630212529" lon="11.473805057098785"><ele>736.0</ele><time>2026-04-04T10:42:50Z</time></trkpt><trkpt lat="44.18743240544393" lon="11.473709574092183"><ele>734.8571428571429</ele><time>2026-04-04T10:42:57Z</time></trkpt><trkpt lat="44.187373210444065" lon="11.473644580792845"><ele>733.7142857142857</ele><time>2026-04-04T10:43:04Z</time></trkpt><trkpt lat="44.187315705301735" lon="11.473595951291372"><ele>732.5714285714286</ele><time>2026-04-04T10:43:09Z</time></trkpt><trkpt lat="44.18724394237721" lon="11.473561892752333"><ele>731.4285714285714</ele><time>2026-04-04T10:43:15Z</time></trkpt><trkpt lat="44.18718055478238" lon="11.47355852354981"><ele>730.2857142857142</ele><time>2026-04-04T10:43:20Z</time></trkpt><trkpt lat="44.187125597211654" lon="11.473482598037897"><ele>729.1428571428571</ele><time>2026-04-04T10:43:24Z</time></trkpt><trkpt lat="44.18704703882535" lon="11.473499801271199"><ele>728.0</ele><time>2026-04-04T10:43:29Z</time></trkpt><trkpt lat="44.187011553000254" lon="11.473407670578503"><ele>727.0</ele><time>2026-04-04T10:43:34Z</time></trkpt><trkpt lat="44.18694877701466" lon="11.473359739108883"><ele>726.0</ele><time>2026-04-04T10:43:39Z</time></trkpt><trkpt lat="44.186879074851824" lon="11.473292681208093"><ele>725.0</ele><time>2026-04-04T10:43:45Z</time></trkpt><trkpt lat="44.1868185595691" lon="11.473233278214904"><ele>724.0</ele><time>2026-04-04T10:43:51Z</time></trkpt><trkpt lat="44.18676074514199" lon="11.473180109564101"><ele>723.0</ele><time>2026-04-04T10:43:57Z</time></trkpt><trkpt lat="44.18677039736991" lon="11.473268271861444"><ele>722.0</ele><time>2026-04-04T10:44:04Z</time></trkpt><trkpt lat="44.186808241432516" lon="11.47334332755391"><ele>721.0</ele><time>2026-04-04T10:44:09Z</time></trkpt><trkpt lat="44.186855445150144" lon="11.473416126867544"><ele>721.0</ele><time>2026-04-04T10:44:15Z</time></trkpt><trkpt lat="44.18690472889717" lon="11.473476955206776"><ele>721.0</ele><time>2026-04-04T10:44:20Z</time></trkpt><trkpt lat="44.18694748499253" lon="11.473541625043891"><ele>721.0</ele><time>2026-04-04T10:44:26Z</time></trkpt><trkpt lat="44.186944905791734" lon="11.47363221702339"><ele>721.0</ele><time>2026-04-04T10:44:32Z</time></trkpt><trkpt lat="44.1869528945443" lon="11.473729099413081"><ele>721.0</ele><time>2026-04-04T10:44:38Z</time></trkpt><trkpt lat="44.186966218166546" lon="11.47382029319557"><ele>721.0</ele><time>2026-04-04T10:45:01Z</time></trkpt><trkpt lat="44.18697760137229" lon="11.473906758457428"><ele>721.0</ele><time>2026-04-04T10:45:08Z</time></trkpt><trkpt lat="44.18698967305802" lon="11.473994188198947"><ele>718.2857142857143</ele><time>2026-04-04T10:45:12.999Z</time></trkpt><trkpt lat="44.18698038891135" lon="11.47408333730204"><ele>715.5714285714286</ele><time>2026-04-04T10:45:22Z</time></trkpt><trkpt lat="44.18702473674012" lon="11.47416255728239"><ele>712.8571428571429</ele><time>2026-04-04T10:45:31Z</time></trkpt><trkpt lat="44.18707572973983" lon="11.474220744399744"><ele>710.1428571428571</ele><time>2026-04-04T10:45:39Z</time></trkpt><trkpt lat="44.187110671396674" lon="11.474302457020647"><ele>707.4285714285714</ele><time>2026-04-04T10:45:46Z</time></trkpt><trkpt lat="44.18714872454925" lon="11.47438615771368"><ele>704.7142857142858</ele><time>2026-04-04T10:45:53Z</time></trkpt><trkpt lat="44.187179215662496" lon="11.474477790312466"><ele>702.0</ele><time>2026-04-04T10:46:01Z</time></trkpt><trkpt lat="44.187227765511416" lon="11.474563853265495"><ele>698.7142857142858</ele><time>2026-04-04T10:47:16.999Z</time></trkpt><trkpt lat="44.18729321394783" lon="11.474641089976162"><ele>695.4285714285714</ele><time>2026-04-04T10:47:28Z</time></trkpt><trkpt lat="44.18730192634958" lon="11.474734237238232"><ele>692.1428571428571</ele><time>2026-04-04T10:47:34Z</time></trkpt><trkpt lat="44.18732995830468" lon="11.47482914338345"><ele>688.8571428571429</ele><time>2026-04-04T10:47:40Z</time></trkpt><trkpt lat="44.187376004593084" lon="11.474896227977624"><ele>685.5714285714286</ele><time>2026-04-04T10:47:45Z</time></trkpt><trkpt lat="44.18742310269637" lon="11.474957165881714"><ele>682.2857142857143</ele><time>2026-04-04T10:47:50Z</time></trkpt><trkpt lat="44.18742970268814" lon="11.47505329962435"><ele>679.0</ele><time>2026-04-04T10:47:56Z</time></trkpt><trkpt lat="44.187474554349556" lon="11.475138316205804"><ele>683.7142857142857</ele><time>2026-04-04T10:48:03Z</time></trkpt><trkpt lat="44.187505015944645" lon="11.475224667075233"><ele>688.4285714285714</ele><time>2026-04-04T10:48:11Z</time></trkpt><trkpt lat="44.187515061635075" lon="11.475323071150752"><ele>693.1428571428571</ele><time>2026-04-04T10:48:17Z</time></trkpt><trkpt lat="44.187485548079884" lon="11.47541212925481"><ele>697.8571428571429</ele><time>2026-04-04T10:48:23Z</time></trkpt><trkpt lat="44.18749459876219" lon="11.475502390852578"><ele>702.5714285714286</ele><time>2026-04-04T10:48:27Z</time></trkpt><trkpt lat="44.18751554021635" lon="11.475592053800504"><ele>707.2857142857142</ele><time>2026-04-04T10:48:32Z</time></trkpt><trkpt lat="44.18755635948918" lon="11.4756646878448"><ele>712.0</ele><time>2026-04-04T10:48:37Z</time></trkpt><trkpt lat="44.18760128526321" lon="11.475749161806828"><ele>711.9999999999999</ele><time>2026-04-04T10:48:43Z</time></trkpt><trkpt lat="44.18765733171495" lon="11.47579980263053"><ele>712.0</ele><time>2026-04-04T10:48:47.999Z</time></trkpt><trkpt lat="44.18769899301356" lon="11.475867496380273"><ele>712.0</ele><time>2026-04-04T10:48:52.999Z</time></trkpt><trkpt lat="44.18775320977123" lon="11.475927012947658"><ele>712.0</ele><time>2026-04-04T10:48:59.999Z</time></trkpt><trkpt lat="44.18780704416709" lon="11.475990750729572"><ele>712.0</ele><time>2026-04-04T10:49:05.999Z</time></trkpt><trkpt lat="44.18785962413829" lon="11.476060598720675"><ele>711.9999999999999</ele><time>2026-04-04T10:49:12.999Z</time></trkpt><trkpt lat="44.187893842646076" lon="11.476142573786209"><ele>712.0</ele><time>2026-04-04T10:49:18.999Z</time></trkpt><trkpt lat="44.187938571291355" lon="11.47621587769604"><ele>709.4285714285713</ele><time>2026-04-04T10:49:25.999Z</time></trkpt><trkpt lat="44.18796423616325" lon="11.476303760268722"><ele>706.8571428571429</ele><time>2026-04-04T10:49:31Z</time></trkpt><trkpt lat="44.18799848394458" lon="11.476381251675228"><ele>704.2857142857142</ele><time>2026-04-04T10:49:37Z</time></trkpt><trkpt lat="44.18802496503877" lon="11.476461416526174"><ele>701.7142857142857</ele><time>2026-04-04T10:49:43Z</time></trkpt><trkpt lat="44.18804591822543" lon="11.476545104133933"><ele>699.1428571428571</ele><time>2026-04-04T10:49:48Z</time></trkpt><trkpt lat="44.18803592343459" lon="11.476639920596359"><ele>696.5714285714286</ele><time>2026-04-04T10:49:53Z</time></trkpt><trkpt lat="44.18802949996202" lon="11.476732409339178"><ele>694.0</ele><time>2026-04-04T10:49:59Z</time></trkpt><trkpt lat="44.188023603934965" lon="11.476824435511356"><ele>694.0</ele><time>2026-04-04T10:50:05Z</time></trkpt><trkpt lat="44.18801515890953" lon="11.47691618537834"><ele>694.0</ele><time>2026-04-04T10:50:11Z</time></trkpt><trkpt lat="44.188011702330044" lon="11.477011497841557"><ele>694.0</ele><time>2026-04-04T10:50:19Z</time></trkpt><trkpt lat="44.187999575714734" lon="11.477111760952718"><ele>694.0</ele><time>2026-04-04T10:50:26Z</time></trkpt><trkpt lat="44.188004320851796" lon="11.477199753659647"><ele>694.0</ele><time>2026-04-04T10:50:32Z</time></trkpt><trkpt lat="44.18802480474244" lon="11.477284276205266"><ele>694.0</ele><time>2026-04-04T10:50:39Z</time></trkpt><trkpt lat="44.18800651882305" lon="11.477379478222975"><ele>694.0</ele><time>2026-04-04T10:50:46Z</time></trkpt><trkpt lat="44.187959700865854" lon="11.477458026601912"><ele>694.2857142857143</ele><time>2026-04-04T10:50:53Z</time></trkpt><trkpt lat="44.18792261808836" lon="11.477545455755028"><ele>694.5714285714286</ele><time>2026-04-04T10:51:00Z</time></trkpt><trkpt lat="44.18789016617643" lon="11.47762786954805"><ele>694.8571428571429</ele><time>2026-04-04T10:51:06Z</time></trkpt><trkpt lat="44.1878390062971" lon="11.477680147640317"><ele>695.1428571428571</ele><time>2026-04-04T10:51:13Z</time></trkpt><trkpt lat="44.187788398040794" lon="11.477750254406114"><ele>695.4285714285714</ele><time>2026-04-04T10:51:24.999Z</time></trkpt><trkpt lat="44.18776494185712" lon="11.47783817468903"><ele>695.7142857142857</ele><time>2026-04-04T10:51:31.999Z</time></trkpt><trkpt lat="44.18769454330697" lon="11.477881940437832"><ele>696.0</ele><time>2026-04-04T10:51:38Z</time></trkpt><trkpt lat="44.18765354761052" lon="11.477972891194868"><ele>696.0</ele><time>2026-04-04T10:51:44Z</time></trkpt><trkpt lat="44.18761264984866" lon="11.478040626388408"><ele>696.0</ele><time>2026-04-04T10:51:51Z</time></trkpt><trkpt lat="44.18760014755867" lon="11.47812887266342"><ele>696.0</ele><time>2026-04-04T10:51:57Z</time></trkpt><trkpt lat="44.18762702686953" lon="11.478220043337103"><ele>696.0</ele><time>2026-04-04T10:52:03Z</time></trkpt><trkpt lat="44.18764469290107" lon="11.478321346528055"><ele>696.0</ele><time>2026-04-04T10:52:10Z</time></trkpt><trkpt lat="44.18766772135188" lon="11.478405105576345"><ele>696.0</ele><time>2026-04-04T10:52:19Z</time></trkpt><trkpt lat="44.18771126287916" lon="11.478484404311564"><ele>696.0</ele><time>2026-04-04T10:52:27Z</time></trkpt><trkpt lat="44.18774121747752" lon="11.478564430119972"><ele>696.0</ele><time>2026-04-04T10:52:33Z</time></trkpt><trkpt lat="44.1877804731108" lon="11.478633584861665"><ele>696.0</ele><time>2026-04-04T10:52:39Z</time></trkpt><trkpt lat="44.18784719614401" lon="11.478663284593889"><ele>696.0</ele><time>2026-04-04T10:52:46Z</time></trkpt><trkpt lat="44.18790276944836" lon="11.478717306140405"><ele>696.0</ele><time>2026-04-04T10:52:52Z</time></trkpt><trkpt lat="44.1879440813081" lon="11.478787936090697"><ele>696.0</ele><time>2026-04-04T10:53:05Z</time></trkpt><trkpt lat="44.188001208822925" lon="11.478826849670712"><ele>696.0</ele><time>2026-04-04T10:53:11Z</time></trkpt><trkpt lat="44.188057883103845" lon="11.478927244173613"><ele>696.0</ele><time>2026-04-04T10:53:22Z</time></trkpt><trkpt lat="44.18810393792021" lon="11.478993836360976"><ele>694.1428571428571</ele><time>2026-04-04T10:53:27.999Z</time></trkpt><trkpt lat="44.18816784023487" lon="11.479016602731742"><ele>692.2857142857143</ele><time>2026-04-04T10:53:35.999Z</time></trkpt><trkpt lat="44.188223552116995" lon="11.47906290593886"><ele>690.4285714285714</ele><time>2026-04-04T10:53:41Z</time></trkpt><trkpt lat="44.188284080644095" lon="11.47908767727268"><ele>688.5714285714286</ele><time>2026-04-04T10:53:49Z</time></trkpt><trkpt lat="44.18832655517769" lon="11.479155476484127"><ele>686.7142857142857</ele><time>2026-04-04T10:53:58Z</time></trkpt><trkpt lat="44.18837628405408" lon="11.479233255821658"><ele>684.8571428571429</ele><time>2026-04-04T10:54:11Z</time></trkpt><trkpt lat="44.18840059443298" lon="11.479331932962282"><ele>683.0</ele><time>2026-04-04T10:54:20Z</time></trkpt><trkpt lat="44.1884369610418" lon="11.479411953156339"><ele>683.0</ele><time>2026-04-04T10:54:28Z</time></trkpt><trkpt lat="44.18849009738859" lon="11.479465860433205"><ele>683.0</ele><time>2026-04-04T10:54:36Z</time></trkpt><trkpt lat="44.18854763718791" lon="11.479509547256471"><ele>683.0</ele><time>2026-04-04T10:54:43Z</time></trkpt><trkpt lat="44.18859842315271" lon="11.479568963162867"><ele>683.0</ele><time>2026-04-04T10:54:51Z</time></trkpt><trkpt lat="44.18866826252609" lon="11.47959175961434"><ele>683.0</ele><time>2026-04-04T10:54:59Z</time></trkpt><trkpt lat="44.18873978963989" lon="11.479634245070942"><ele>683.0</ele><time>2026-04-04T10:55:18Z</time></trkpt><trkpt lat="44.188802852597334" lon="11.479633367484839"><ele>683.0</ele><time>2026-04-04T10:55:24Z</time></trkpt><trkpt lat="44.18886738591856" lon="11.4796591827031"><ele>683.2857142857143</ele><time>2026-04-04T10:55:38.999Z</time></trkpt><trkpt lat="44.188930394213315" lon="11.479627227703068"><ele>683.5714285714286</ele><time>2026-04-04T10:55:48Z</time></trkpt><trkpt lat="44.189009936335694" lon="11.479594143316728"><ele>683.8571428571429</ele><time>2026-04-04T10:55:54Z</time></trkpt><trkpt lat="44.18907647917763" lon="11.47954995654242"><ele>684.1428571428571</ele><time>2026-04-04T10:56:00Z</time></trkpt><trkpt lat="44.189148255842426" lon="11.479542739856528"><ele>684.4285714285714</ele><time>2026-04-04T10:56:06Z</time></trkpt><trkpt lat="44.189208240814494" lon="11.47958437330271"><ele>684.7142857142857</ele><time>2026-04-04T10:56:11Z</time></trkpt><trkpt lat="44.1892481887843" lon="11.47965236990269"><ele>685.0</ele><time>2026-04-04T10:56:18Z</time></trkpt><trkpt lat="44.189213529493706" lon="11.479736502702378"><ele>682.0</ele><time>2026-04-04T10:56:34Z</time></trkpt><trkpt lat="44.18919332973098" lon="11.47982554248795"><ele>679.0</ele><time>2026-04-04T10:56:42Z</time></trkpt><trkpt lat="44.18920295358231" lon="11.47992292131866"><ele>676.0</ele><time>2026-04-04T10:56:50Z</time></trkpt><trkpt lat="44.18916340912283" lon="11.479996270008035"><ele>673.0</ele><time>2026-04-04T10:56:56Z</time></trkpt><trkpt lat="44.18915010676568" lon="11.480085535314297"><ele>670.0</ele><time>2026-04-04T10:57:04Z</time></trkpt><trkpt lat="44.18912701574224" lon="11.480178378638051"><ele>667.0</ele><time>2026-04-04T10:57:10Z</time></trkpt><trkpt lat="44.18910406085984" lon="11.48027317609762"><ele>664.0</ele><time>2026-04-04T10:57:16Z</time></trkpt><trkpt lat="44.18902575005938" lon="11.480266257623747"><ele>661.8571428571428</ele><time>2026-04-04T10:57:21Z</time></trkpt><trkpt lat="44.1889635977482" lon="11.480316762920259"><ele>659.7142857142858</ele><time>2026-04-04T10:57:26Z</time></trkpt><trkpt lat="44.188922435933364" lon="11.480396321139912"><ele>657.5714285714286</ele><time>2026-04-04T10:57:34Z</time></trkpt><trkpt lat="44.188877753714756" lon="11.480469600320234"><ele>655.4285714285713</ele><time>2026-04-04T10:57:40.999Z</time></trkpt><trkpt lat="44.188864999802774" lon="11.480567031410532"><ele>653.2857142857142</ele><time>2026-04-04T10:57:46.999Z</time></trkpt><trkpt lat="44.188802928401124" lon="11.48061966694621"><ele>651.1428571428571</ele><time>2026-04-04T10:57:53Z</time></trkpt><trkpt lat="44.188773386282136" lon="11.480709778277632"><ele>649.0</ele><time>2026-04-04T10:57:59Z</time></trkpt><trkpt lat="44.18875779948799" lon="11.48080061415955"><ele>646.4285714285713</ele><time>2026-04-04T10:58:04Z</time></trkpt><trkpt lat="44.188764621648254" lon="11.480888484260818"><ele>643.8571428571429</ele><time>2026-04-04T10:58:10Z</time></trkpt><trkpt lat="44.18876299183093" lon="11.480990599534936"><ele>641.2857142857142</ele><time>2026-04-04T10:58:16Z</time></trkpt><trkpt lat="44.18870222575775" lon="11.481039995759744"><ele>638.7142857142857</ele><time>2026-04-04T10:58:26Z</time></trkpt><trkpt lat="44.18865206911192" lon="11.48110250353551"><ele>636.1428571428571</ele><time>2026-04-04T10:58:34Z</time></trkpt><trkpt lat="44.188617750790215" lon="11.481186631228391"><ele>633.5714285714286</ele><time>2026-04-04T10:58:42Z</time></trkpt><trkpt lat="44.18863193343308" lon="11.481273438551124"><ele>631.0</ele><time>2026-04-04T10:58:49Z</time></trkpt><trkpt lat="44.188657097178826" lon="11.48137086066504"><ele>627.8571428571429</ele><time>2026-04-04T10:58:55Z</time></trkpt><trkpt lat="44.18870385930319" lon="11.481433623195121"><ele>624.7142857142857</ele><time>2026-04-04T10:59:02Z</time></trkpt><trkpt lat="44.18872143393044" lon="11.481519183904021"><ele>621.5714285714286</ele><time>2026-04-04T10:59:07Z</time></trkpt><trkpt lat="44.18863249336605" lon="11.481555635160637"><ele>618.4285714285714</ele><time>2026-04-04T10:59:22Z</time></trkpt><trkpt lat="44.188586578" lon="11.481618710756013"><ele>615.2857142857142</ele><time>2026-04-04T10:59:33Z</time></trkpt><trkpt lat="44.18859614286773" lon="11.481705897580204"><ele>612.1428571428571</ele><time>2026-04-04T10:59:42Z</time></trkpt><trkpt lat="44.188577324412876" lon="11.481796142872001"><ele>609.0</ele><time>2026-04-04T10:59:48Z</time></trkpt><trkpt lat="44.18852691705214" lon="11.481859376835017"><ele>609.0</ele><time>2026-04-04T10:59:53.999Z</time></trkpt><trkpt lat="44.18848369725018" lon="11.481936525073257"><ele>609.0</ele><time>2026-04-04T11:00:02Z</time></trkpt><trkpt lat="44.18847615565478" lon="11.482025251540133"><ele>609.0</ele><time>2026-04-04T11:00:08Z</time></trkpt><trkpt lat="44.18843852909106" lon="11.482096319768448"><ele>609.0</ele><time>2026-04-04T11:00:14Z</time></trkpt><trkpt lat="44.18847109801428" lon="11.482173295160917"><ele>609.0</ele><time>2026-04-04T11:00:21Z</time></trkpt><trkpt lat="44.18842408306792" lon="11.482236721932123"><ele>609.0</ele><time>2026-04-04T11:00:30Z</time></trkpt><trkpt lat="44.18835181884353" lon="11.482252224404444"><ele>609.0</ele><time>2026-04-04T11:00:36Z</time></trkpt><trkpt lat="44.18829037487908" lon="11.482322021791068"><ele>606.7142857142857</ele><time>2026-04-04T11:00:48Z</time></trkpt><trkpt lat="44.18824435584838" lon="11.482388113313213"><ele>604.4285714285714</ele><time>2026-04-04T11:00:57Z</time></trkpt><trkpt lat="44.188199423039286" lon="11.482452413347962"><ele>602.1428571428571</ele><time>2026-04-04T11:01:08Z</time></trkpt><trkpt lat="44.188161878248636" lon="11.482530656896364"><ele>599.8571428571429</ele><time>2026-04-04T11:01:16Z</time></trkpt><trkpt lat="44.188131895364585" lon="11.482624827513716"><ele>597.5714285714286</ele><time>2026-04-04T11:01:25Z</time></trkpt><trkpt lat="44.18812107724531" lon="11.482711507049443"><ele>595.2857142857142</ele><time>2026-04-04T11:01:31Z</time></trkpt><trkpt lat="44.188106459813405" lon="11.482799063883203"><ele>593.0</ele><time>2026-04-04T11:01:37Z</time></trkpt><trkpt lat="44.1881507468578" lon="11.482863483208758"><ele>590.4285714285713</ele><time>2026-04-04T11:01:43Z</time></trkpt><trkpt lat="44.188205483465175" lon="11.482934094915189"><ele>587.8571428571429</ele><time>2026-04-04T11:01:51.999Z</time></trkpt><trkpt lat="44.188234682699495" lon="11.483023226693438"><ele>585.2857142857142</ele><time>2026-04-04T11:02:04Z</time></trkpt><trkpt lat="44.188191168388386" lon="11.483101215247459"><ele>582.7142857142857</ele><time>2026-04-04T11:02:10Z</time></trkpt><trkpt lat="44.18822718180397" lon="11.483178436904145"><ele>580.1428571428571</ele><time>2026-04-04T11:02:20Z</time></trkpt><trkpt lat="44.18828324100077" lon="11.483221260175899"><ele>577.5714285714286</ele><time>2026-04-04T11:02:33Z</time></trkpt><trkpt lat="44.18824296296109" lon="11.483303957926285"><ele>575.0</ele><time>2026-04-04T11:02:41Z</time></trkpt><trkpt lat="44.188218241278996" lon="11.483402792989283"><ele>575.0</ele><time>2026-04-04T11:02:49Z</time></trkpt><trkpt lat="44.18819778279688" lon="11.483489365570339"><ele>575.0</ele><time>2026-04-04T11:02:55Z</time></trkpt><trkpt lat="44.18814066968365" lon="11.483535415600798"><ele>575.0</ele><time>2026-04-04T11:03:04Z</time></trkpt><trkpt lat="44.188099076712845" lon="11.483604538237442"><ele>575.0</ele><time>2026-04-04T11:03:11Z</time></trkpt><trkpt lat="44.18804000817575" lon="11.483652127087376"><ele>575.0</ele><time>2026-04-04T11:03:20Z</time></trkpt><trkpt lat="44.18804701071578" lon="11.483739960851373"><ele>575.0</ele><time>2026-04-04T11:04:52Z</time></trkpt><trkpt lat="44.18811225767265" lon="11.483765312378083"><ele>575.0</ele><time>2026-04-04T11:13:47Z</time></trkpt><trkpt lat="44.18815278456684" lon="11.483832922011171"><ele>567.1428571428571</ele><time>2026-04-04T11:13:57Z</time></trkpt><trkpt lat="44.18817452335133" lon="11.483918912854609"><ele>559.2857142857142</ele><time>2026-04-04T11:14:06Z</time></trkpt><trkpt lat="44.18812132406314" lon="11.483971193334236"><ele>551.4285714285714</ele><time>2026-04-04T11:14:12Z</time></trkpt><trkpt lat="44.188057848514795" lon="11.484023874691266"><ele>543.5714285714286</ele><time>2026-04-04T11:14:18Z</time></trkpt><trkpt lat="44.18799706714567" lon="11.484119621227041"><ele>535.7142857142858</ele><time>2026-04-04T11:14:27Z</time></trkpt><trkpt lat="44.187984756753735" lon="11.484206900556291"><ele>527.8571428571429</ele><time>2026-04-04T11:14:32Z</time></trkpt><trkpt lat="44.18798586127444" lon="11.48430054780727"><ele>520.0</ele><time>2026-04-04T11:14:37Z</time></trkpt><trkpt lat="44.18803279293687" lon="11.484370943704654"><ele>520.0000000000001</ele><time>2026-04-04T11:14:42.999Z</time></trkpt><trkpt lat="44.188050387073474" lon="11.484456924368642"><ele>520.0</ele><time>2026-04-04T11:14:46.999Z</time></trkpt><trkpt lat="44.18809133853543" lon="11.484542414162702"><ele>520.0</ele><time>2026-04-04T11:14:52.999Z</time></trkpt><trkpt lat="44.1881045334481" lon="11.48464288897783"><ele>520.0</ele><time>2026-04-04T11:14:58.999Z</time></trkpt><trkpt lat="44.18809551430801" lon="11.484746890990468"><ele>520.0</ele><time>2026-04-04T11:15:05Z</time></trkpt><trkpt lat="44.18808328267277" lon="11.484836313489232"><ele>520.0000000000001</ele><time>2026-04-04T11:15:11Z</time></trkpt><trkpt lat="44.18806759803858" lon="11.484926529737864"><ele>520.0</ele><time>2026-04-04T11:15:17Z</time></trkpt><trkpt lat="44.188024264779706" lon="11.484994367098302"><ele>520.1428571428572</ele><time>2026-04-04T11:15:22Z</time></trkpt><trkpt lat="44.18797572791967" lon="11.485067082396755"><ele>520.2857142857143</ele><time>2026-04-04T11:15:28Z</time></trkpt><trkpt lat="44.1879589033379" lon="11.485152255607433"><ele>520.4285714285714</ele><time>2026-04-04T11:15:35Z</time></trkpt><trkpt lat="44.18794008951307" lon="11.485247447025582"><ele>520.5714285714287</ele><time>2026-04-04T11:15:43Z</time></trkpt><trkpt lat="44.18789371282429" lon="11.48530880756727"><ele>520.7142857142858</ele><time>2026-04-04T11:15:50Z</time></trkpt><trkpt lat="44.18785067005955" lon="11.485378060761152"><ele>520.8571428571429</ele><time>2026-04-04T11:15:58Z</time></trkpt><trkpt lat="44.18782627013282" lon="11.485464576450255"><ele>521.0</ele><time>2026-04-04T11:16:03Z</time></trkpt><trkpt lat="44.187832264512004" lon="11.485571407034193"><ele>521.0</ele><time>2026-04-04T11:16:13Z</time></trkpt><trkpt lat="44.18781953500603" lon="11.485668984564944"><ele>521.0</ele><time>2026-04-04T11:16:22Z</time></trkpt><trkpt lat="44.1877797996124" lon="11.485749068701512"><ele>521.0</ele><time>2026-04-04T11:16:28Z</time></trkpt><trkpt lat="44.18775025256854" lon="11.485836337719897"><ele>521.0</ele><time>2026-04-04T11:16:34Z</time></trkpt><trkpt lat="44.18781071551317" lon="11.485883475311955"><ele>521.0</ele><time>2026-04-04T11:16:54Z</time></trkpt><trkpt lat="44.18787687323707" lon="11.485865399288743"><ele>521.0</ele><time>2026-04-04T11:17:00Z</time></trkpt><trkpt lat="44.1879431434203" lon="11.485820056999737"><ele>521.0</ele><time>2026-04-04T11:17:07Z</time></trkpt><trkpt lat="44.18800459380808" lon="11.48577952261099"><ele>521.0</ele><time>2026-04-04T11:17:13Z</time></trkpt><trkpt lat="44.18804857349705" lon="11.48571359952663"><ele>521.0</ele><time>2026-04-04T11:17:18Z</time></trkpt><trkpt lat="44.188103801885305" lon="11.485641303203229"><ele>521.0</ele><time>2026-04-04T11:17:24Z</time></trkpt><trkpt lat="44.188116165105924" lon="11.485552360449496"><ele>521.0</ele><time>2026-04-04T11:17:31Z</time></trkpt><trkpt lat="44.18816232381409" lon="11.485488413950533"><ele>521.0</ele><time>2026-04-04T11:17:37Z</time></trkpt><trkpt lat="44.188205498733076" lon="11.485422326604159"><ele>521.0</ele><time>2026-04-04T11:17:47Z</time></trkpt><trkpt lat="44.18824838567278" lon="11.485350357555841"><ele>521.0</ele><time>2026-04-04T11:17:53Z</time></trkpt><trkpt lat="44.18829216669417" lon="11.48527622800331"><ele>523.2857142857142</ele><time>2026-04-04T11:18:00Z</time></trkpt><trkpt lat="44.18833739447034" lon="11.485208358005938"><ele>525.5714285714286</ele><time>2026-04-04T11:18:06Z</time></trkpt><trkpt lat="44.18838412006306" lon="11.485134053669006"><ele>527.8571428571429</ele><time>2026-04-04T11:18:12Z</time></trkpt><trkpt lat="44.188459472416746" lon="11.485096811933516"><ele>530.1428571428571</ele><time>2026-04-04T11:18:17Z</time></trkpt><trkpt lat="44.18848406335274" lon="11.485009172310724"><ele>532.4285714285714</ele><time>2026-04-04T11:18:28Z</time></trkpt><trkpt lat="44.18853353365261" lon="11.484944964752161"><ele>534.7142857142857</ele><time>2026-04-04T11:18:45Z</time></trkpt><trkpt lat="44.18859651559368" lon="11.484904349257901"><ele>537.0</ele><time>2026-04-04T11:18:51.001Z</time></trkpt><trkpt lat="44.18866799045738" lon="11.484858645297201"><ele>536.9999999999999</ele><time>2026-04-04T11:18:57.001Z</time></trkpt><trkpt lat="44.18871941474483" lon="11.484782244038891"><ele>537.0</ele><time>2026-04-04T11:19:02Z</time></trkpt><trkpt lat="44.18877183404857" lon="11.484702715965192"><ele>537.0</ele><time>2026-04-04T11:19:09Z</time></trkpt><trkpt lat="44.18883059882269" lon="11.484657494278519"><ele>537.0</ele><time>2026-04-04T11:19:15Z</time></trkpt><trkpt lat="44.18889548533205" lon="11.484597400907251"><ele>537.0</ele><time>2026-04-04T11:19:22Z</time></trkpt><trkpt lat="44.188964614460566" lon="11.484568626959788"><ele>536.9999999999999</ele><time>2026-04-04T11:19:48Z</time></trkpt><trkpt lat="44.18901203689999" lon="11.484487038041967"><ele>537.0</ele><time>2026-04-04T11:20:11Z</time></trkpt><trkpt lat="44.189066410039494" lon="11.484430692781256"><ele>535.9999999999999</ele><time>2026-04-04T11:20:28Z</time></trkpt><trkpt lat="44.189143457287976" lon="11.484381218943009"><ele>535.0</ele><time>2026-04-04T11:20:43Z</time></trkpt><trkpt lat="44.18920423012139" lon="11.484317934458039"><ele>534.0</ele><time>2026-04-04T11:20:51Z</time></trkpt><trkpt lat="44.18926956604187" lon="11.484282327030991"><ele>533.0</ele><time>2026-04-04T11:21:02.001Z</time></trkpt><trkpt lat="44.18933300416261" lon="11.484249176655137"><ele>532.0</ele><time>2026-04-04T11:21:09.001Z</time></trkpt><trkpt lat="44.189397561961115" lon="11.484234280733098"><ele>530.9999999999999</ele><time>2026-04-04T11:21:15.001Z</time></trkpt><trkpt lat="44.1894603111369" lon="11.484223888406994"><ele>530.0</ele><time>2026-04-04T11:21:24Z</time></trkpt><trkpt lat="44.18952695910525" lon="11.484214778668878"><ele>529.9999999999999</ele><time>2026-04-04T11:21:29Z</time></trkpt><trkpt lat="44.189580138315314" lon="11.484147922673067"><ele>530.0</ele><time>2026-04-04T11:21:35Z</time></trkpt><trkpt lat="44.18964179397363" lon="11.484101316755662"><ele>530.0</ele><time>2026-04-04T11:21:42Z</time></trkpt><trkpt lat="44.189677538945695" lon="11.484027892012117"><ele>530.0</ele><time>2026-04-04T11:21:49Z</time></trkpt><trkpt lat="44.18972782208938" lon="11.483965514015386"><ele>530.0</ele><time>2026-04-04T11:21:57Z</time></trkpt><trkpt lat="44.18979089226238" lon="11.483962412596929"><ele>529.9999999999999</ele><time>2026-04-04T11:22:10Z</time></trkpt><trkpt lat="44.189873525293024" lon="11.48393159785197"><ele>530.0</ele><time>2026-04-04T11:22:35Z</time></trkpt><trkpt lat="44.189945697850256" lon="11.483929264264264"><ele>529.7142857142857</ele><time>2026-04-04T11:22:49Z</time></trkpt><trkpt lat="44.19000381255471" lon="11.483963372405862"><ele>529.4285714285714</ele><time>2026-04-04T11:22:55Z</time></trkpt><trkpt lat="44.190085978695855" lon="11.483933510197177"><ele>529.1428571428571</ele><time>2026-04-04T11:23:02.001Z</time></trkpt><trkpt lat="44.19015082234609" lon="11.483922257779655"><ele>528.8571428571429</ele><time>2026-04-04T11:23:08.001Z</time></trkpt><trkpt lat="44.190213388128285" lon="11.483877320250778"><ele>528.5714285714286</ele><time>2026-04-04T11:23:14.001Z</time></trkpt><trkpt lat="44.19027567384993" lon="11.483831249713859"><ele>528.2857142857142</ele><time>2026-04-04T11:23:20.001Z</time></trkpt><trkpt lat="44.190332591497054" lon="11.483773802847912"><ele>528.0</ele><time>2026-04-04T11:23:25Z</time></trkpt><trkpt lat="44.19037624094738" lon="11.483704678921962"><ele>528.0</ele><time>2026-04-04T11:23:30Z</time></trkpt><trkpt lat="44.19045624067697" lon="11.483686049135597"><ele>528.0</ele><time>2026-04-04T11:23:37Z</time></trkpt><trkpt lat="44.19052444957565" lon="11.483677891718594"><ele>528.0</ele><time>2026-04-04T11:23:43Z</time></trkpt><trkpt lat="44.190595477273" lon="11.483671188952867"><ele>528.0</ele><time>2026-04-04T11:23:50Z</time></trkpt><trkpt lat="44.190663347413796" lon="11.483694256388757"><ele>528.0</ele><time>2026-04-04T11:23:56Z</time></trkpt><trkpt lat="44.190735594949736" lon="11.483684846770952"><ele>528.0</ele><time>2026-04-04T11:24:02Z</time></trkpt><trkpt lat="44.190783897390766" lon="11.483622883351154"><ele>528.0</ele><time>2026-04-04T11:24:07Z</time></trkpt><trkpt lat="44.190846269177094" lon="11.48356802122502"><ele>525.1428571428571</ele><time>2026-04-04T11:24:12Z</time></trkpt><trkpt lat="44.19090836475448" lon="11.48351654896382"><ele>522.2857142857143</ele><time>2026-04-04T11:24:17Z</time></trkpt><trkpt lat="44.190977567141836" lon="11.48348654654508"><ele>519.4285714285714</ele><time>2026-04-04T11:24:23Z</time></trkpt><trkpt lat="44.19104496781267" lon="11.483465723676844"><ele>516.5714285714286</ele><time>2026-04-04T11:24:28Z</time></trkpt><trkpt lat="44.19111250676294" lon="11.483502466910174"><ele>513.7142857142857</ele><time>2026-04-04T11:24:33Z</time></trkpt><trkpt lat="44.19117378010139" lon="11.483547220488175"><ele>510.8571428571429</ele><time>2026-04-04T11:24:38Z</time></trkpt><trkpt lat="44.191235288129214" lon="11.48358646088886"><ele>508.0</ele><time>2026-04-04T11:24:43Z</time></trkpt><trkpt lat="44.191264299247266" lon="11.483669561418983"><ele>504.28571428571433</ele><time>2026-04-04T11:24:48Z</time></trkpt><trkpt lat="44.19127408021556" lon="11.483772961420065"><ele>500.57142857142856</ele><time>2026-04-04T11:24:54Z</time></trkpt><trkpt lat="44.19129492556243" lon="11.483873145361972"><ele>496.8571428571429</ele><time>2026-04-04T11:25:00Z</time></trkpt><trkpt lat="44.19133648767695" lon="11.483962696747886"><ele>493.14285714285717</ele><time>2026-04-04T11:25:06Z</time></trkpt><trkpt lat="44.1913704362888" lon="11.484051926787577"><ele>489.42857142857144</ele><time>2026-04-04T11:25:12.001Z</time></trkpt><trkpt lat="44.191410674185185" lon="11.484129371518753"><ele>485.7142857142857</ele><time>2026-04-04T11:25:17.001Z</time></trkpt><trkpt lat="44.19144800525197" lon="11.484208407417558"><ele>482.0</ele><time>2026-04-04T11:25:22.001Z</time></trkpt><trkpt lat="44.191475987769316" lon="11.484294391675384"><ele>480.5714285714286</ele><time>2026-04-04T11:25:27Z</time></trkpt><trkpt lat="44.19151995887093" lon="11.484379107131142"><ele>479.1428571428572</ele><time>2026-04-04T11:25:33Z</time></trkpt><trkpt lat="44.19154846004774" lon="11.484467602465196"><ele>477.7142857142857</ele><time>2026-04-04T11:25:38Z</time></trkpt><trkpt lat="44.19158781231242" lon="11.484536859538037"><ele>476.28571428571433</ele><time>2026-04-04T11:25:43Z</time></trkpt><trkpt lat="44.19165400188952" lon="11.484572217158366"><ele>474.8571428571429</ele><time>2026-04-04T11:25:48Z</time></trkpt><trkpt lat="44.191723561894406" lon="11.48458617058938"><ele>473.42857142857144</ele><time>2026-04-04T11:25:53Z</time></trkpt><trkpt lat="44.191779669001754" lon="11.484642223947937"><ele>472.0</ele><time>2026-04-04T11:25:58Z</time></trkpt><trkpt lat="44.19183505150655" lon="11.484691309299807"><ele>472.0</ele><time>2026-04-04T11:26:03Z</time></trkpt><trkpt lat="44.19190245422003" lon="11.48473094047016"><ele>472.0</ele><time>2026-04-04T11:26:09Z</time></trkpt><trkpt lat="44.19196756522895" lon="11.484772401108938"><ele>472.0</ele><time>2026-04-04T11:26:15Z</time></trkpt><trkpt lat="44.191960496714344" lon="11.484871471521023"><ele>472.0</ele><time>2026-04-04T11:26:21Z</time></trkpt><trkpt lat="44.19195041226118" lon="11.484968186014681"><ele>472.0</ele><time>2026-04-04T11:26:28Z</time></trkpt><trkpt lat="44.19193354534801" lon="11.485065830916744"><ele>472.0</ele><time>2026-04-04T11:26:34Z</time></trkpt><trkpt lat="44.19189567267502" lon="11.485137673860965"><ele>472.0</ele><time>2026-04-04T11:26:40Z</time></trkpt><trkpt lat="44.1918522093396" lon="11.48520282113707"><ele>472.0</ele><time>2026-04-04T11:26:45Z</time></trkpt><trkpt lat="44.19181899193394" lon="11.485294416490802"><ele>472.0</ele><time>2026-04-04T11:26:51Z</time></trkpt><trkpt lat="44.19178124792419" lon="11.485379323744587"><ele>472.0</ele><time>2026-04-04T11:26:57Z</time></trkpt><trkpt lat="44.191749014282166" lon="11.485463582106638"><ele>472.0</ele><time>2026-04-04T11:27:03Z</time></trkpt><trkpt lat="44.19176386208633" lon="11.48556212895231"><ele>472.0</ele><time>2026-04-04T11:27:08Z</time></trkpt><trkpt lat="44.19180472881897" lon="11.485632173250693"><ele>472.0</ele><time>2026-04-04T11:27:13Z</time></trkpt><trkpt lat="44.19186056218545" lon="11.485676436928914"><ele>472.0</ele><time>2026-04-04T11:27:18.001Z</time></trkpt><trkpt lat="44.191914250886406" lon="11.48572820823161"><ele>470.1428571428571</ele><time>2026-04-04T11:27:23Z</time></trkpt><trkpt lat="44.19195585833395" lon="11.485799589915157"><ele>468.28571428571433</ele><time>2026-04-04T11:27:29Z</time></trkpt><trkpt lat="44.1919829983469" lon="11.48589474824441"><ele>466.42857142857144</ele><time>2026-04-04T11:27:35Z</time></trkpt><trkpt lat="44.1919818257627" lon="11.48598260677219"><ele>464.57142857142856</ele><time>2026-04-04T11:27:40Z</time></trkpt><trkpt lat="44.19201379365775" lon="11.486069373270885"><ele>462.71428571428567</ele><time>2026-04-04T11:27:46Z</time></trkpt><trkpt lat="44.19204772430856" lon="11.486158409473575"><ele>460.8571428571429</ele><time>2026-04-04T11:27:52Z</time></trkpt><trkpt lat="44.192118616391255" lon="11.486182646213292"><ele>459.0</ele><time>2026-04-04T11:27:58Z</time></trkpt><trkpt lat="44.1921836868789" lon="11.486171572392092"><ele>459.0</ele><time>2026-04-04T11:28:04Z</time></trkpt><trkpt lat="44.192251164264974" lon="11.486199902712178"><ele>459.0</ele><time>2026-04-04T11:28:10Z</time></trkpt><trkpt lat="44.19231308795898" lon="11.486228467326002"><ele>459.0</ele><time>2026-04-04T11:28:35Z</time></trkpt><trkpt lat="44.19233720129334" lon="11.486315812737912"><ele>459.0</ele><time>2026-04-04T11:28:43Z</time></trkpt><trkpt lat="44.19237002778671" lon="11.486394924999837"><ele>459.0</ele><time>2026-04-04T11:28:49Z</time></trkpt><trkpt lat="44.19240726515251" lon="11.486487223671956"><ele>459.0</ele><time>2026-04-04T11:28:55Z</time></trkpt><trkpt lat="44.19245008488829" lon="11.48655988632413"><ele>459.0</ele><time>2026-04-04T11:29:01Z</time></trkpt><trkpt lat="44.192426239611116" lon="11.486646592775708"><ele>459.7142857142857</ele><time>2026-04-04T11:29:07.999Z</time></trkpt><trkpt lat="44.192398891150745" lon="11.48672991236047"><ele>460.42857142857144</ele><time>2026-04-04T11:29:13.999Z</time></trkpt><trkpt lat="44.192406712463146" lon="11.486828918444793"><ele>461.14285714285717</ele><time>2026-04-04T11:29:21Z</time></trkpt><trkpt lat="44.1924350018486" lon="11.486908618034398"><ele>461.8571428571429</ele><time>2026-04-04T11:29:27Z</time></trkpt><trkpt lat="44.192483078967065" lon="11.486967234137659"><ele>462.57142857142856</ele><time>2026-04-04T11:29:33Z</time></trkpt><trkpt lat="44.192527598480844" lon="11.487030433058875"><ele>463.28571428571433</ele><time>2026-04-04T11:29:39Z</time></trkpt><trkpt lat="44.19257000684309" lon="11.487097501784243"><ele>464.00000000000006</ele><time>2026-04-04T11:29:46Z</time></trkpt><trkpt lat="44.192593230158714" lon="11.487182827271575"><ele>464.00000000000006</ele><time>2026-04-04T11:29:53Z</time></trkpt><trkpt lat="44.19260028706558" lon="11.487279585315937"><ele>464.0</ele><time>2026-04-04T11:29:59Z</time></trkpt><trkpt lat="44.192610176401466" lon="11.487367757809796"><ele>464.00000000000006</ele><time>2026-04-04T11:30:05Z</time></trkpt><trkpt lat="44.19262356115884" lon="11.487459896405701"><ele>464.00000000000006</ele><time>2026-04-04T11:30:12Z</time></trkpt><trkpt lat="44.1926482108656" lon="11.487544159662999"><ele>464.0</ele><time>2026-04-04T11:30:18Z</time></trkpt><trkpt lat="44.192689937295185" lon="11.487616877694036"><ele>464.00000000000006</ele><time>2026-04-04T11:30:25Z</time></trkpt><trkpt lat="44.19274714812115" lon="11.487673459952589"><ele>464.00000000000006</ele><time>2026-04-04T11:30:31Z</time></trkpt><trkpt lat="44.19277576379599" lon="11.487756845861409"><ele>464.00000000000006</ele><time>2026-04-04T11:30:37Z</time></trkpt><trkpt lat="44.19279783160983" lon="11.487842793242885"><ele>464.0</ele><time>2026-04-04T11:30:43Z</time></trkpt><trkpt lat="44.192797602220864" lon="11.487934401282521"><ele>464.00000000000006</ele><time>2026-04-04T11:30:48.999Z</time></trkpt><trkpt lat="44.19279400256381" lon="11.488030395393166"><ele>464.00000000000006</ele><time>2026-04-04T11:30:55.999Z</time></trkpt><trkpt lat="44.19279825361457" lon="11.48811879303633"><ele>464.0</ele><time>2026-04-04T11:31:05.999Z</time></trkpt><trkpt lat="44.19281587121558" lon="11.488206443425954"><ele>464.00000000000006</ele><time>2026-04-04T11:31:11.999Z</time></trkpt><trkpt lat="44.19281878843583" lon="11.488297493129004"><ele>464.00000000000006</ele><time>2026-04-04T11:31:17.999Z</time></trkpt><trkpt lat="44.19279753539336" lon="11.48838636361806"><ele>462.4285714285715</ele><time>2026-04-04T11:31:23.999Z</time></trkpt><trkpt lat="44.192755867639875" lon="11.488466698935884"><ele>460.8571428571429</ele><time>2026-04-04T11:31:31Z</time></trkpt><trkpt lat="44.192722824201" lon="11.48855280629526"><ele>459.2857142857143</ele><time>2026-04-04T11:31:38Z</time></trkpt><trkpt lat="44.192722766506144" lon="11.48864419465814"><ele>457.7142857142857</ele><time>2026-04-04T11:31:45Z</time></trkpt><trkpt lat="44.19278895838802" lon="11.488643264162697"><ele>456.1428571428571</ele><time>2026-04-04T11:31:55Z</time></trkpt><trkpt lat="44.19284834416847" lon="11.488699532867026"><ele>454.5714285714285</ele><time>2026-04-04T11:32:03Z</time></trkpt><trkpt lat="44.19290808293374" lon="11.488661157019088"><ele>452.99999999999994</ele><time>2026-04-04T11:32:11Z</time></trkpt><trkpt lat="44.19296706003534" lon="11.488604474316643"><ele>453.0</ele><time>2026-04-04T11:32:31Z</time></trkpt><trkpt lat="44.192964053387" lon="11.488515018688625"><ele>453.0</ele><time>2026-04-04T11:32:59.999Z</time></trkpt><trkpt lat="44.193076750322604" lon="11.488396913310407"><ele>453.0</ele><time>2026-04-04T11:33:39Z</time></trkpt><trkpt lat="44.19309244655716" lon="11.488301265887545"><ele>453.0</ele><time>2026-04-04T11:33:57Z</time></trkpt><trkpt lat="44.193059738462004" lon="11.48821922412211"><ele>453.0</ele><time>2026-04-04T11:34:23Z</time></trkpt><trkpt lat="44.193122568872674" lon="11.488196972514528"><ele>453.0</ele><time>2026-04-04T11:34:52.999Z</time></trkpt><trkpt lat="44.19314849175516" lon="11.48810555734374"><ele>453.0</ele><time>2026-04-04T11:35:02.999Z</time></trkpt><trkpt lat="44.19321457568937" lon="11.488099649931348"><ele>481.0</ele><time>2026-04-04T11:35:11.999Z</time></trkpt><trkpt lat="44.193276893947775" lon="11.488135741203632"><ele>481.0</ele><time>2026-04-04T11:35:25.999Z</time></trkpt><trkpt lat="44.19327023588188" lon="11.488034560813903"><ele>481.0</ele><time>2026-04-04T11:35:44Z</time></trkpt><trkpt lat="44.193324950591474" lon="11.488087430192241"><ele>481.0</ele><time>2026-04-04T11:36:18Z</time></trkpt><trkpt lat="44.19335749840901" lon="11.488007211078079"><ele>481.0</ele><time>2026-04-04T11:37:03.999Z</time></trkpt><trkpt lat="44.19341754027305" lon="11.487973024362493"><ele>481.0</ele><time>2026-04-04T11:37:19.999Z</time></trkpt></trkseg><trkseg><trkpt lat="44.19333189006115" lon="11.487946171190117"><ele>480.99999999999994</ele><time>2026-04-04T13:06:27Z</time></trkpt><trkpt lat="44.193293420337135" lon="11.488073058952766"><ele>481.0</ele><time>2026-04-04T13:08:34Z</time></trkpt><trkpt lat="44.193279264343" lon="11.488169317712405"><ele>480.99999999999994</ele><time>2026-04-04T13:08:56Z</time></trkpt><trkpt lat="44.19324163204909" lon="11.488244967935199"><ele>480.99999999999994</ele><time>2026-04-04T13:09:42Z</time></trkpt><trkpt lat="44.19318300349429" lon="11.488202868392753"><ele>481.0</ele><time>2026-04-04T13:10:17Z</time></trkpt><trkpt lat="44.193147633352375" lon="11.488276453530379"><ele>480.99999999999994</ele><time>2026-04-04T13:10:39Z</time></trkpt><trkpt lat="44.19312720381287" lon="11.48836082672213"><ele>480.99999999999994</ele><time>2026-04-04T13:10:57Z</time></trkpt><trkpt lat="44.1930869404399" lon="11.48844513408124"><ele>476.99999999999994</ele><time>2026-04-04T13:11:31Z</time></trkpt><trkpt lat="44.1930257930335" lon="11.488502930433247"><ele>473.0</ele><time>2026-04-04T13:11:53Z</time></trkpt><trkpt lat="44.192983739549646" lon="11.488574931813877"><ele>468.99999999999994</ele><time>2026-04-04T13:12:01Z</time></trkpt><trkpt lat="44.19295667090765" lon="11.488660737811141"><ele>464.99999999999994</ele><time>2026-04-04T13:12:10Z</time></trkpt><trkpt lat="44.19288867274526" lon="11.48868269957441"><ele>461.0</ele><time>2026-04-04T13:12:26Z</time></trkpt><trkpt lat="44.19282615824938" lon="11.488658318397006"><ele>456.99999999999994</ele><time>2026-04-04T13:12:41Z</time></trkpt><trkpt lat="44.192759572710294" lon="11.488672718962071"><ele>452.99999999999994</ele><time>2026-04-04T13:12:54Z</time></trkpt><trkpt lat="44.19277133790154" lon="11.488762739845468"><ele>451.8571428571428</ele><time>2026-04-04T13:13:15Z</time></trkpt><trkpt lat="44.192810600654234" lon="11.488836055369791"><ele>450.71428571428567</ele><time>2026-04-04T13:13:21Z</time></trkpt><trkpt lat="44.19285456738842" lon="11.488900045613724"><ele>449.57142857142856</ele><time>2026-04-04T13:13:27Z</time></trkpt><trkpt lat="44.19290502482639" lon="11.488980647469656"><ele>448.4285714285714</ele><time>2026-04-04T13:13:34Z</time></trkpt><trkpt lat="44.19293780291994" lon="11.489060086734312"><ele>447.2857142857142</ele><time>2026-04-04T13:13:40Z</time></trkpt><trkpt lat="44.19292039029402" lon="11.4891499286616"><ele>446.14285714285717</ele><time>2026-04-04T13:13:47Z</time></trkpt><trkpt lat="44.19290456096502" lon="11.48924931478093"><ele>445.0</ele><time>2026-04-04T13:13:52Z</time></trkpt><trkpt lat="44.192889998825834" lon="11.489340617446722"><ele>445.0</ele><time>2026-04-04T13:13:57Z</time></trkpt><trkpt lat="44.192886409473935" lon="11.489438699736178"><ele>445.0</ele><time>2026-04-04T13:14:04Z</time></trkpt><trkpt lat="44.192870623225296" lon="11.489525248931333"><ele>445.0</ele><time>2026-04-04T13:14:09Z</time></trkpt><trkpt lat="44.19287259562835" lon="11.489628161888158"><ele>445.0</ele><time>2026-04-04T13:14:15Z</time></trkpt><trkpt lat="44.19288462996469" lon="11.48971660125486"><ele>445.0</ele><time>2026-04-04T13:14:23Z</time></trkpt><trkpt lat="44.19285105098881" lon="11.489801769383822"><ele>445.0</ele><time>2026-04-04T13:14:30Z</time></trkpt><trkpt lat="44.192816350319895" lon="11.489890371709977"><ele>445.0</ele><time>2026-04-04T13:14:34Z</time></trkpt><trkpt lat="44.19282470786287" lon="11.489989151560778"><ele>445.42857142857144</ele><time>2026-04-04T13:14:41Z</time></trkpt><trkpt lat="44.192845991279505" lon="11.490077024025771"><ele>445.85714285714283</ele><time>2026-04-04T13:14:47Z</time></trkpt><trkpt lat="44.19283356656898" lon="11.490164108648488"><ele>446.2857142857143</ele><time>2026-04-04T13:14:55Z</time></trkpt><trkpt lat="44.19277832864413" lon="11.490217095699446"><ele>446.7142857142857</ele><time>2026-04-04T13:15:00Z</time></trkpt><trkpt lat="44.1927158272814" lon="11.490247791892523"><ele>447.1428571428571</ele><time>2026-04-04T13:15:26Z</time></trkpt><trkpt lat="44.19266805532651" lon="11.490306644111717"><ele>447.57142857142856</ele><time>2026-04-04T13:15:32Z</time></trkpt><trkpt lat="44.19260958384834" lon="11.490359351259277"><ele>448.0</ele><time>2026-04-04T13:15:38Z</time></trkpt><trkpt lat="44.192544555894365" lon="11.490412294130785"><ele>448.8571428571429</ele><time>2026-04-04T13:15:45Z</time></trkpt><trkpt lat="44.192490020852496" lon="11.490475109451902"><ele>449.7142857142857</ele><time>2026-04-04T13:15:56Z</time></trkpt><trkpt lat="44.19243838349449" lon="11.490543310234624"><ele>450.57142857142856</ele><time>2026-04-04T13:16:03Z</time></trkpt><trkpt lat="44.19240394538851" lon="11.490621331685965"><ele>451.42857142857144</ele><time>2026-04-04T13:16:10Z</time></trkpt><trkpt lat="44.19238989374831" lon="11.49070873664697"><ele>452.28571428571433</ele><time>2026-04-04T13:16:17Z</time></trkpt><trkpt lat="44.19233648454602" lon="11.490778492389573"><ele>453.14285714285717</ele><time>2026-04-04T13:16:38Z</time></trkpt><trkpt lat="44.1923283700618" lon="11.490867409846707"><ele>454.0</ele><time>2026-04-04T13:16:48Z</time></trkpt><trkpt lat="44.192279459717376" lon="11.490937704516185"><ele>453.42857142857144</ele><time>2026-04-04T13:16:55Z</time></trkpt><trkpt lat="44.192230308260775" lon="11.49099624713863"><ele>452.8571428571429</ele><time>2026-04-04T13:17:00Z</time></trkpt><trkpt lat="44.192178660347395" lon="11.49107859417985"><ele>452.28571428571433</ele><time>2026-04-04T13:17:08Z</time></trkpt><trkpt lat="44.19213670446125" lon="11.491153084033861"><ele>451.7142857142858</ele><time>2026-04-04T13:17:13Z</time></trkpt><trkpt lat="44.192092837433066" lon="11.491224264041282"><ele>451.14285714285717</ele><time>2026-04-04T13:17:19Z</time></trkpt><trkpt lat="44.19206351088698" lon="11.49131651096317"><ele>450.57142857142867</ele><time>2026-04-04T13:17:25Z</time></trkpt><trkpt lat="44.192006259216114" lon="11.49135657579231"><ele>450.00000000000006</ele><time>2026-04-04T13:17:30Z</time></trkpt><trkpt lat="44.19193058395" lon="11.49135772078396"><ele>450.00000000000006</ele><time>2026-04-04T13:17:37Z</time></trkpt><trkpt lat="44.191858923305446" lon="11.49136767638336"><ele>450.0</ele><time>2026-04-04T13:17:42Z</time></trkpt><trkpt lat="44.19178727949931" lon="11.491388128936238"><ele>450.00000000000006</ele><time>2026-04-04T13:17:49Z</time></trkpt><trkpt lat="44.191728886218534" lon="11.49143808919428"><ele>450.00000000000006</ele><time>2026-04-04T13:17:55Z</time></trkpt><trkpt lat="44.19166927561243" lon="11.491486472411829"><ele>450.0</ele><time>2026-04-04T13:18:02Z</time></trkpt><trkpt lat="44.19160790028466" lon="11.491519311389395"><ele>450.00000000000006</ele><time>2026-04-04T13:18:07Z</time></trkpt><trkpt lat="44.19154932493082" lon="11.491564747641124"><ele>450.00000000000006</ele><time>2026-04-04T13:18:16Z</time></trkpt><trkpt lat="44.19148091414597" lon="11.491602601252204"><ele>444.4285714285715</ele><time>2026-04-04T13:18:25Z</time></trkpt><trkpt lat="44.191410048313855" lon="11.491629127119566"><ele>438.8571428571429</ele><time>2026-04-04T13:18:32Z</time></trkpt><trkpt lat="44.19134425773542" lon="11.491666255011893"><ele>433.28571428571433</ele><time>2026-04-04T13:18:39Z</time></trkpt><trkpt lat="44.1912878184442" lon="11.4917226695344"><ele>427.7142857142858</ele><time>2026-04-04T13:18:50Z</time></trkpt><trkpt lat="44.19123364772648" lon="11.491787361645903"><ele>422.1428571428571</ele><time>2026-04-04T13:18:57Z</time></trkpt><trkpt lat="44.19119906755914" lon="11.49187054070347"><ele>416.57142857142856</ele><time>2026-04-04T13:19:05Z</time></trkpt><trkpt lat="44.19122713501624" lon="11.491955016830232"><ele>411.0</ele><time>2026-04-04T13:19:13Z</time></trkpt><trkpt lat="44.19123688078924" lon="11.49204307430202"><ele>411.85714285714283</ele><time>2026-04-04T13:19:22Z</time></trkpt><trkpt lat="44.19124980836397" lon="11.492132276501541"><ele>412.71428571428567</ele><time>2026-04-04T13:19:29Z</time></trkpt><trkpt lat="44.19125810923344" lon="11.492233257814613"><ele>413.57142857142856</ele><time>2026-04-04T13:19:36Z</time></trkpt><trkpt lat="44.191246403601134" lon="11.49233125498135"><ele>414.42857142857144</ele><time>2026-04-04T13:19:43Z</time></trkpt><trkpt lat="44.19122426510541" lon="11.492428072098903"><ele>415.2857142857143</ele><time>2026-04-04T13:19:50Z</time></trkpt><trkpt lat="44.19122160347633" lon="11.492531415988417"><ele>416.14285714285717</ele><time>2026-04-04T13:19:56Z</time></trkpt><trkpt lat="44.1911953831861" lon="11.492626747383731"><ele>417.0</ele><time>2026-04-04T13:20:02Z</time></trkpt><trkpt lat="44.19118696913687" lon="11.492715966031428"><ele>417.0</ele><time>2026-04-04T13:20:08Z</time></trkpt><trkpt lat="44.191146650758434" lon="11.49279023223123"><ele>417.0</ele><time>2026-04-04T13:20:15Z</time></trkpt><trkpt lat="44.19108736634316" lon="11.492854302294468"><ele>417.0</ele><time>2026-04-04T13:20:21Z</time></trkpt><trkpt lat="44.19103863164059" lon="11.492932920957855"><ele>417.0</ele><time>2026-04-04T13:20:27Z</time></trkpt><trkpt lat="44.19097951470687" lon="11.492966992927238"><ele>417.0</ele><time>2026-04-04T13:20:32Z</time></trkpt><trkpt lat="44.19095002396457" lon="11.493058236204934"><ele>417.0</ele><time>2026-04-04T13:20:40Z</time></trkpt><trkpt lat="44.19091730801472" lon="11.493135492006063"><ele>417.0</ele><time>2026-04-04T13:20:47Z</time></trkpt><trkpt lat="44.1908839746319" lon="11.493213036404645"><ele>417.42857142857144</ele><time>2026-04-04T13:20:54Z</time></trkpt><trkpt lat="44.1908447238136" lon="11.493295159260523"><ele>417.85714285714283</ele><time>2026-04-04T13:21:03Z</time></trkpt><trkpt lat="44.19079995966678" lon="11.49337026585621"><ele>418.2857142857143</ele><time>2026-04-04T13:21:11Z</time></trkpt><trkpt lat="44.190766677664655" lon="11.493452985870958"><ele>418.7142857142857</ele><time>2026-04-04T13:21:19Z</time></trkpt><trkpt lat="44.1907478935125" lon="11.493549769169881"><ele>419.1428571428571</ele><time>2026-04-04T13:21:27Z</time></trkpt><trkpt lat="44.19079701462556" lon="11.493611527792389"><ele>419.57142857142856</ele><time>2026-04-04T13:21:35Z</time></trkpt><trkpt lat="44.190847202914746" lon="11.49367288715831"><ele>420.0</ele><time>2026-04-04T13:21:55Z</time></trkpt><trkpt lat="44.190908842037516" lon="11.493712167513038"><ele>417.3333333333333</ele><time>2026-04-04T13:21:59Z</time></trkpt><trkpt lat="44.19095400492919" lon="11.49381051955944"><ele>414.66666666666663</ele><time>2026-04-04T13:22:06Z</time></trkpt><trkpt lat="44.1910107607646" lon="11.493868383937313"><ele>412.0</ele><time>2026-04-04T13:22:12Z</time></trkpt><trkpt lat="44.19104269761446" lon="11.493963351980984"><ele>409.3333333333333</ele><time>2026-04-04T13:22:28Z</time></trkpt><trkpt lat="44.19094604456388" lon="11.494055283512703"><ele>406.66666666666663</ele><time>2026-04-04T13:22:43Z</time></trkpt><trkpt lat="44.1908767518277" lon="11.494056361607877"><ele>404.0</ele><time>2026-04-04T13:22:49Z</time></trkpt><trkpt lat="44.19080952860273" lon="11.49401480864832"><ele>404.0</ele><time>2026-04-04T13:22:55Z</time></trkpt><trkpt lat="44.19074314866012" lon="11.494000925167981"><ele>404.0</ele><time>2026-04-04T13:23:00Z</time></trkpt><trkpt lat="44.19068860243742" lon="11.493942671056008"><ele>404.0</ele><time>2026-04-04T13:23:05Z</time></trkpt><trkpt lat="44.19062657675918" lon="11.493883991940528"><ele>404.0</ele><time>2026-04-04T13:23:11Z</time></trkpt><trkpt lat="44.190567126154946" lon="11.493927460115136"><ele>404.0</ele><time>2026-04-04T13:23:22Z</time></trkpt><trkpt lat="44.190606240379125" lon="11.494002543437933"><ele>404.0</ele><time>2026-04-04T13:23:27Z</time></trkpt><trkpt lat="44.19065604216324" lon="11.494058150550833"><ele>404.0</ele><time>2026-04-04T13:23:34Z</time></trkpt><trkpt lat="44.19070789640604" lon="11.494119814831144"><ele>404.0</ele><time>2026-04-04T13:23:40Z</time></trkpt><trkpt lat="44.19076808172245" lon="11.494178871471226"><ele>404.0</ele><time>2026-04-04T13:23:46Z</time></trkpt><trkpt lat="44.19080866434352" lon="11.494261862234007"><ele>404.0</ele><time>2026-04-04T13:23:52Z</time></trkpt><trkpt lat="44.19086055601395" lon="11.494328713223013"><ele>404.0</ele><time>2026-04-04T13:23:59Z</time></trkpt><trkpt lat="44.19091870178603" lon="11.49437693069544"><ele>404.0</ele><time>2026-04-04T13:24:04Z</time></trkpt><trkpt lat="44.19097364228303" lon="11.49443485270617"><ele>404.0</ele><time>2026-04-04T13:24:10Z</time></trkpt><trkpt lat="44.19103163787654" lon="11.494502486011779"><ele>404.0</ele><time>2026-04-04T13:24:17Z</time></trkpt><trkpt lat="44.19109007665586" lon="11.494573502120286"><ele>400.1428571428571</ele><time>2026-04-04T13:24:22Z</time></trkpt><trkpt lat="44.19105604191628" lon="11.494668253034801"><ele>396.2857142857143</ele><time>2026-04-04T13:24:27Z</time></trkpt><trkpt lat="44.1909918220761" lon="11.494685662522157"><ele>392.42857142857144</ele><time>2026-04-04T13:24:32Z</time></trkpt><trkpt lat="44.19093450031988" lon="11.494722371803121"><ele>388.57142857142856</ele><time>2026-04-04T13:24:39Z</time></trkpt><trkpt lat="44.19086713874735" lon="11.494741425578521"><ele>384.7142857142857</ele><time>2026-04-04T13:24:45Z</time></trkpt><trkpt lat="44.1908037685434" lon="11.494721718990478"><ele>380.85714285714283</ele><time>2026-04-04T13:24:50Z</time></trkpt><trkpt lat="44.190737826494974" lon="11.494726770835276"><ele>377.0</ele><time>2026-04-04T13:24:56Z</time></trkpt><trkpt lat="44.19066282665746" lon="11.494731596822973"><ele>375.57142857142856</ele><time>2026-04-04T13:25:01Z</time></trkpt><trkpt lat="44.19059565569973" lon="11.494748736967082"><ele>374.1428571428571</ele><time>2026-04-04T13:25:06Z</time></trkpt><trkpt lat="44.19052843017469" lon="11.494772273235254"><ele>372.71428571428567</ele><time>2026-04-04T13:25:11Z</time></trkpt><trkpt lat="44.19046042925112" lon="11.494799069095448"><ele>371.2857142857143</ele><time>2026-04-04T13:25:16Z</time></trkpt><trkpt lat="44.190394280236475" lon="11.49482878003174"><ele>369.8571428571429</ele><time>2026-04-04T13:25:21Z</time></trkpt><trkpt lat="44.190328901262575" lon="11.4948661732816"><ele>368.4285714285714</ele><time>2026-04-04T13:25:26Z</time></trkpt><trkpt lat="44.190273375156295" lon="11.494909161331611"><ele>367.0</ele><time>2026-04-04T13:25:31Z</time></trkpt><trkpt lat="44.190212482638685" lon="11.494961924842691"><ele>367.0</ele><time>2026-04-04T13:25:37Z</time></trkpt><trkpt lat="44.190160124388306" lon="11.495019051328141"><ele>367.0</ele><time>2026-04-04T13:25:42Z</time></trkpt><trkpt lat="44.19011504952307" lon="11.495085616452574"><ele>367.0</ele><time>2026-04-04T13:25:47Z</time></trkpt><trkpt lat="44.19007528917659" lon="11.49515877718583"><ele>367.0</ele><time>2026-04-04T13:26:02Z</time></trkpt><trkpt lat="44.190033466893695" lon="11.495248414388604"><ele>367.0</ele><time>2026-04-04T13:26:17Z</time></trkpt><trkpt lat="44.18999571792032" lon="11.49532230465093"><ele>367.0</ele><time>2026-04-04T13:26:22Z</time></trkpt><trkpt lat="44.18994329750021" lon="11.49538237554231"><ele>367.0</ele><time>2026-04-04T13:26:32Z</time></trkpt><trkpt lat="44.18987615808476" lon="11.495391140068861"><ele>364.0</ele><time>2026-04-04T13:26:41Z</time></trkpt><trkpt lat="44.18980310924119" lon="11.495364125336874"><ele>361.0</ele><time>2026-04-04T13:26:57Z</time></trkpt><trkpt lat="44.189739964389695" lon="11.495331909484404"><ele>358.0</ele><time>2026-04-04T13:27:02Z</time></trkpt><trkpt lat="44.18963249699541" lon="11.495272643849965"><ele>355.0</ele><time>2026-04-04T13:27:25Z</time></trkpt><trkpt lat="44.18969117110441" lon="11.495311342239336"><ele>352.0</ele><time>2026-04-04T13:27:45Z</time></trkpt><trkpt lat="44.18973982027896" lon="11.495398256477877"><ele>349.0</ele><time>2026-04-04T13:27:50Z</time></trkpt><trkpt lat="44.189779211153635" lon="11.495472291751446"><ele>348.99999999999994</ele><time>2026-04-04T13:27:55Z</time></trkpt><trkpt lat="44.18983683595587" lon="11.495520729059322"><ele>349.0</ele><time>2026-04-04T13:28:02Z</time></trkpt><trkpt lat="44.18989693808189" lon="11.495568972369085"><ele>349.0</ele><time>2026-04-04T13:28:08Z</time></trkpt><trkpt lat="44.18996377605085" lon="11.495580706264283"><ele>349.0</ele><time>2026-04-04T13:28:19Z</time></trkpt><trkpt lat="44.19002788503623" lon="11.49554212336629"><ele>349.0</ele><time>2026-04-04T13:28:28Z</time></trkpt><trkpt lat="44.19008427998795" lon="11.495492006642156"><ele>348.99999999999994</ele><time>2026-04-04T13:28:32Z</time></trkpt><trkpt lat="44.190149858391855" lon="11.495464680534631"><ele>349.0</ele><time>2026-04-04T13:28:37Z</time></trkpt><trkpt lat="44.19022936745995" lon="11.495418015556108"><ele>351.57142857142856</ele><time>2026-04-04T13:28:42Z</time></trkpt><trkpt lat="44.19029240195209" lon="11.495384157108221"><ele>354.1428571428571</ele><time>2026-04-04T13:28:47Z</time></trkpt><trkpt lat="44.19035783387333" lon="11.495358936188687"><ele>356.71428571428567</ele><time>2026-04-04T13:28:52Z</time></trkpt><trkpt lat="44.19041869633533" lon="11.495306761539517"><ele>359.2857142857143</ele><time>2026-04-04T13:28:57Z</time></trkpt><trkpt lat="44.19048091354535" lon="11.495288229692916"><ele>361.8571428571429</ele><time>2026-04-04T13:29:02Z</time></trkpt><trkpt lat="44.19054852101675" lon="11.49528575125475"><ele>364.4285714285714</ele><time>2026-04-04T13:29:07Z</time></trkpt><trkpt lat="44.190622288005365" lon="11.495315650215119"><ele>367.0</ele><time>2026-04-04T13:29:12Z</time></trkpt><trkpt lat="44.190696861136786" lon="11.495343363580416"><ele>368.4285714285714</ele><time>2026-04-04T13:29:17Z</time></trkpt><trkpt lat="44.19075935876203" lon="11.495401288706793"><ele>369.8571428571429</ele><time>2026-04-04T13:29:24Z</time></trkpt><trkpt lat="44.19081410771927" lon="11.495462950269262"><ele>371.2857142857143</ele><time>2026-04-04T13:29:30Z</time></trkpt><trkpt lat="44.19087953813718" lon="11.495507972073229"><ele>372.71428571428567</ele><time>2026-04-04T13:29:35Z</time></trkpt><trkpt lat="44.19094274777973" lon="11.495573431131255"><ele>374.1428571428571</ele><time>2026-04-04T13:29:40Z</time></trkpt><trkpt lat="44.19098290545481" lon="11.495644571751148"><ele>375.57142857142856</ele><time>2026-04-04T13:29:46Z</time></trkpt><trkpt lat="44.19102252606195" lon="11.495722385942257"><ele>377.0</ele><time>2026-04-04T13:29:51Z</time></trkpt><trkpt lat="44.19105230239121" lon="11.495801751534382"><ele>372.99999999999994</ele><time>2026-04-04T13:29:56Z</time></trkpt><trkpt lat="44.191098560277695" lon="11.495868005827498"><ele>369.0</ele><time>2026-04-04T13:30:00Z</time></trkpt><trkpt lat="44.19114957311577" lon="11.495923473174207"><ele>365.0</ele><time>2026-04-04T13:30:07Z</time></trkpt><trkpt lat="44.19119385169884" lon="11.495986088151351"><ele>361.0</ele><time>2026-04-04T13:30:11Z</time></trkpt><trkpt lat="44.191227189575194" lon="11.496067337310256"><ele>357.0</ele><time>2026-04-04T13:30:17Z</time></trkpt><trkpt lat="44.19126941406236" lon="11.496144176994338"><ele>352.99999999999994</ele><time>2026-04-04T13:30:22Z</time></trkpt><trkpt lat="44.19130756167428" lon="11.49622678070418"><ele>349.0</ele><time>2026-04-04T13:30:29Z</time></trkpt><trkpt lat="44.19135448421302" lon="11.496297322326663"><ele>347.1428571428571</ele><time>2026-04-04T13:30:35Z</time></trkpt><trkpt lat="44.191397235682096" lon="11.49637286544919"><ele>345.2857142857143</ele><time>2026-04-04T13:30:41Z</time></trkpt><trkpt lat="44.191417301017445" lon="11.496473167958817"><ele>343.42857142857144</ele><time>2026-04-04T13:30:47Z</time></trkpt><trkpt lat="44.191441425349815" lon="11.496559267419059"><ele>341.57142857142856</ele><time>2026-04-04T13:30:53Z</time></trkpt><trkpt lat="44.19145029450032" lon="11.496660964357071"><ele>339.7142857142857</ele><time>2026-04-04T13:30:59Z</time></trkpt><trkpt lat="44.19145665070182" lon="11.496759740768137"><ele>337.85714285714283</ele><time>2026-04-04T13:31:05Z</time></trkpt><trkpt lat="44.19147553085728" lon="11.496865058471851"><ele>336.0</ele><time>2026-04-04T13:31:11Z</time></trkpt><trkpt lat="44.1915124796218" lon="11.496949955848468"><ele>336.0</ele><time>2026-04-04T13:31:16Z</time></trkpt><trkpt lat="44.19156302483621" lon="11.497009034245488"><ele>336.0</ele><time>2026-04-04T13:31:21Z</time></trkpt><trkpt lat="44.191615300920766" lon="11.497073125715774"><ele>336.0</ele><time>2026-04-04T13:31:26Z</time></trkpt><trkpt lat="44.19167527989737" lon="11.497109523678331"><ele>336.0</ele><time>2026-04-04T13:31:31Z</time></trkpt><trkpt lat="44.19173637617434" lon="11.497153409075638"><ele>336.0</ele><time>2026-04-04T13:31:36Z</time></trkpt><trkpt lat="44.191798587935104" lon="11.49719885153365"><ele>336.0</ele><time>2026-04-04T13:31:42Z</time></trkpt><trkpt lat="44.191855861712106" lon="11.497237563204283"><ele>336.0</ele><time>2026-04-04T13:31:47Z</time></trkpt><trkpt lat="44.191926219493844" lon="11.497261981573375"><ele>333.57142857142856</ele><time>2026-04-04T13:31:53Z</time></trkpt><trkpt lat="44.19199342784678" lon="11.497297075941061"><ele>331.1428571428571</ele><time>2026-04-04T13:31:59Z</time></trkpt><trkpt lat="44.19205130884357" lon="11.49733295852702"><ele>328.7142857142857</ele><time>2026-04-04T13:32:04Z</time></trkpt><trkpt lat="44.19211314928721" lon="11.497365808607643"><ele>326.2857142857143</ele><time>2026-04-04T13:32:09Z</time></trkpt><trkpt lat="44.19218131660183" lon="11.497398963800853"><ele>323.85714285714283</ele><time>2026-04-04T13:32:15Z</time></trkpt><trkpt lat="44.19225859747624" lon="11.497430604197845"><ele>321.42857142857144</ele><time>2026-04-04T13:32:21Z</time></trkpt><trkpt lat="44.19232330204685" lon="11.497459630987365"><ele>319.0</ele><time>2026-04-04T13:32:26Z</time></trkpt><trkpt lat="44.1923843031006" lon="11.497481564029158"><ele>319.0</ele><time>2026-04-04T13:32:31Z</time></trkpt><trkpt lat="44.19244356657572" lon="11.49751253549364"><ele>319.0</ele><time>2026-04-04T13:32:36Z</time></trkpt><trkpt lat="44.19250852460446" lon="11.497524080698367"><ele>319.0</ele><time>2026-04-04T13:32:41Z</time></trkpt><trkpt lat="44.19257545424318" lon="11.497533737176777"><ele>319.0</ele><time>2026-04-04T13:32:46Z</time></trkpt><trkpt lat="44.192647912604436" lon="11.497532317517987"><ele>319.0</ele><time>2026-04-04T13:32:52Z</time></trkpt><trkpt lat="44.19271139757826" lon="11.49751324894162"><ele>319.0</ele><time>2026-04-04T13:32:58Z</time></trkpt><trkpt lat="44.192781935126426" lon="11.497481957090729"><ele>319.0</ele><time>2026-04-04T13:33:03Z</time></trkpt><trkpt lat="44.192852835858346" lon="11.497471232038247"><ele>319.0</ele><time>2026-04-04T13:33:09Z</time></trkpt><trkpt lat="44.19292030640507" lon="11.497474023138897"><ele>319.0</ele><time>2026-04-04T13:33:13.999Z</time></trkpt><trkpt lat="44.192971558652125" lon="11.497540815285905"><ele>319.0</ele><time>2026-04-04T13:33:21.999Z</time></trkpt><trkpt lat="44.19296811480449" lon="11.497686467649826"><ele>319.0</ele><time>2026-04-04T13:33:24.999Z</time></trkpt><trkpt lat="44.192987270375234" lon="11.497786985692539"><ele>319.0</ele><time>2026-04-04T13:33:31.999Z</time></trkpt><trkpt lat="44.19300026604177" lon="11.497888483911629"><ele>319.0</ele><time>2026-04-04T13:33:37.999Z</time></trkpt><trkpt lat="44.193000415946216" lon="11.497980978856704"><ele>316.42857142857144</ele><time>2026-04-04T13:33:43Z</time></trkpt><trkpt lat="44.19301169499381" lon="11.498079488484537"><ele>313.85714285714283</ele><time>2026-04-04T13:33:49Z</time></trkpt><trkpt lat="44.19300882813572" lon="11.498169013654683"><ele>311.2857142857143</ele><time>2026-04-04T13:33:54Z</time></trkpt><trkpt lat="44.19301414897492" lon="11.498264106120313"><ele>308.7142857142857</ele><time>2026-04-04T13:34:00Z</time></trkpt><trkpt lat="44.19303596362881" lon="11.498357063110483"><ele>306.1428571428571</ele><time>2026-04-04T13:34:07Z</time></trkpt><trkpt lat="44.19303009603203" lon="11.498456616158977"><ele>303.57142857142856</ele><time>2026-04-04T13:34:13Z</time></trkpt><trkpt lat="44.19303762249579" lon="11.498546916587145"><ele>301.0</ele><time>2026-04-04T13:34:19Z</time></trkpt><trkpt lat="44.1930512555824" lon="11.498643167172778"><ele>301.0</ele><time>2026-04-04T13:34:24Z</time></trkpt><trkpt lat="44.19305207865221" lon="11.498731533522482"><ele>301.0</ele><time>2026-04-04T13:34:29Z</time></trkpt><trkpt lat="44.19307926453578" lon="11.498818743007991"><ele>301.0</ele><time>2026-04-04T13:34:36Z</time></trkpt><trkpt lat="44.193113016731886" lon="11.498896814662409"><ele>301.0</ele><time>2026-04-04T13:34:42Z</time></trkpt><trkpt lat="44.193159283225604" lon="11.498963268733625"><ele>301.0</ele><time>2026-04-04T13:34:47Z</time></trkpt><trkpt lat="44.193209780407074" lon="11.499016262133194"><ele>301.0</ele><time>2026-04-04T13:34:53Z</time></trkpt><trkpt lat="44.193266180374096" lon="11.499071502048894"><ele>301.0</ele><time>2026-04-04T13:34:59Z</time></trkpt><trkpt lat="44.19332737807501" lon="11.499124906765237"><ele>298.85714285714283</ele><time>2026-04-04T13:35:04Z</time></trkpt><trkpt lat="44.19339364613752" lon="11.499164613477667"><ele>296.7142857142857</ele><time>2026-04-04T13:35:09Z</time></trkpt><trkpt lat="44.193449666760905" lon="11.499212854131311"><ele>294.57142857142856</ele><time>2026-04-04T13:35:14Z</time></trkpt><trkpt lat="44.19350717396982" lon="11.49926127310385"><ele>292.42857142857144</ele><time>2026-04-04T13:35:19Z</time></trkpt><trkpt lat="44.19356951098296" lon="11.499301273545148"><ele>290.2857142857143</ele><time>2026-04-04T13:35:25Z</time></trkpt><trkpt lat="44.19363096052503" lon="11.499329879174178"><ele>288.1428571428571</ele><time>2026-04-04T13:35:30Z</time></trkpt><trkpt lat="44.19369492416557" lon="11.499333107287903"><ele>286.0</ele><time>2026-04-04T13:35:35Z</time></trkpt><trkpt lat="44.19376702347314" lon="11.499353713357463"><ele>285.99999999999994</ele><time>2026-04-04T13:35:41Z</time></trkpt><trkpt lat="44.1938355491716" lon="11.499396045097768"><ele>286.0</ele><time>2026-04-04T13:35:47Z</time></trkpt><trkpt lat="44.193906944930085" lon="11.4994303623287"><ele>286.0</ele><time>2026-04-04T13:35:53Z</time></trkpt><trkpt lat="44.193978567026086" lon="11.499443336051772"><ele>286.0</ele><time>2026-04-04T13:35:58Z</time></trkpt><trkpt lat="44.19405411962312" lon="11.499433072121024"><ele>286.0</ele><time>2026-04-04T13:36:04Z</time></trkpt><trkpt lat="44.194123453932534" lon="11.49945449662416"><ele>285.99999999999994</ele><time>2026-04-04T13:36:09Z</time></trkpt><trkpt lat="44.19418903784067" lon="11.499437024351385"><ele>286.0</ele><time>2026-04-04T13:36:14Z</time></trkpt><trkpt lat="44.194251076826056" lon="11.499413914404728"><ele>286.4285714285714</ele><time>2026-04-04T13:36:19Z</time></trkpt><trkpt lat="44.19432030215497" lon="11.499375230820199"><ele>286.85714285714283</ele><time>2026-04-04T13:36:25Z</time></trkpt><trkpt lat="44.194392838161036" lon="11.499362488072578"><ele>287.2857142857143</ele><time>2026-04-04T13:36:31Z</time></trkpt><trkpt lat="44.194450763337244" lon="11.49929118205514"><ele>287.71428571428567</ele><time>2026-04-04T13:36:36Z</time></trkpt><trkpt lat="44.194502827914654" lon="11.499233120879921"><ele>288.1428571428571</ele><time>2026-04-04T13:36:42Z</time></trkpt><trkpt lat="44.194554102053885" lon="11.499142565130363"><ele>288.57142857142856</ele><time>2026-04-04T13:36:49Z</time></trkpt><trkpt lat="44.194596154110286" lon="11.499076281147255"><ele>289.0</ele><time>2026-04-04T13:36:54Z</time></trkpt><trkpt lat="44.1946454490647" lon="11.499011523559753"><ele>289.0</ele><time>2026-04-04T13:36:59Z</time></trkpt><trkpt lat="44.19469270528671" lon="11.498928874168021"><ele>289.0</ele><time>2026-04-04T13:37:05Z</time></trkpt><trkpt lat="44.194753555274715" lon="11.498868705517861"><ele>289.0</ele><time>2026-04-04T13:37:11Z</time></trkpt><trkpt lat="44.19482249085329" lon="11.498828688014529"><ele>289.0</ele><time>2026-04-04T13:37:17.001Z</time></trkpt><trkpt lat="44.19488305084695" lon="11.4987600306399"><ele>289.0</ele><time>2026-04-04T13:37:23.001Z</time></trkpt><trkpt lat="44.194947279514174" lon="11.498706499609513"><ele>289.0</ele><time>2026-04-04T13:37:29.001Z</time></trkpt><trkpt lat="44.19500458816564" lon="11.498670033128576"><ele>289.0</ele><time>2026-04-04T13:37:34.001Z</time></trkpt><trkpt lat="44.19506233320519" lon="11.498625908703211"><ele>290.2857142857143</ele><time>2026-04-04T13:37:39.001Z</time></trkpt><trkpt lat="44.1951236859291" lon="11.498584062509071"><ele>291.57142857142856</ele><time>2026-04-04T13:37:44.001Z</time></trkpt><trkpt lat="44.19519137214591" lon="11.498547366166765"><ele>292.85714285714283</ele><time>2026-04-04T13:37:50.001Z</time></trkpt><trkpt lat="44.1952609482353" lon="11.498543597991265"><ele>294.1428571428571</ele><time>2026-04-04T13:37:55.001Z</time></trkpt><trkpt lat="44.195327346904435" lon="11.498511717390695"><ele>295.4285714285714</ele><time>2026-04-04T13:38:00.001Z</time></trkpt><trkpt lat="44.195395597494816" lon="11.49845989102166"><ele>296.7142857142857</ele><time>2026-04-04T13:38:07.001Z</time></trkpt><trkpt lat="44.19545428657818" lon="11.498394408066712"><ele>298.0</ele><time>2026-04-04T13:38:13.001Z</time></trkpt><trkpt lat="44.195501224838345" lon="11.498331768477767"><ele>298.0</ele><time>2026-04-04T13:38:18.001Z</time></trkpt><trkpt lat="44.19556310955273" lon="11.49831475280416"><ele>298.0</ele><time>2026-04-04T13:38:22.001Z</time></trkpt><trkpt lat="44.19560728469186" lon="11.498242106330713"><ele>298.0</ele><time>2026-04-04T13:38:28.001Z</time></trkpt><trkpt lat="44.195672304546456" lon="11.498183433005583"><ele>298.0</ele><time>2026-04-04T13:38:34.001Z</time></trkpt><trkpt lat="44.19573037640084" lon="11.498145637424681"><ele>298.0</ele><time>2026-04-04T13:38:39.001Z</time></trkpt><trkpt lat="44.19579145124942" lon="11.498090643227536"><ele>298.0</ele><time>2026-04-04T13:38:44.001Z</time></trkpt><trkpt lat="44.19585965257549" lon="11.498059000775402"><ele>298.0</ele><time>2026-04-04T13:38:49.001Z</time></trkpt><trkpt lat="44.195917370091585" lon="11.497997845709852"><ele>293.85714285714283</ele><time>2026-04-04T13:38:54.001Z</time></trkpt><trkpt lat="44.19599310743925" lon="11.497982340891838"><ele>289.71428571428567</ele><time>2026-04-04T13:38:59.001Z</time></trkpt><trkpt lat="44.19605796999285" lon="11.498022768012317"><ele>285.57142857142856</ele><time>2026-04-04T13:39:04.001Z</time></trkpt><trkpt lat="44.19611734337695" lon="11.498059261563316"><ele>281.42857142857144</ele><time>2026-04-04T13:39:09.001Z</time></trkpt><trkpt lat="44.196127345223154" lon="11.498158697498896"><ele>277.28571428571433</ele><time>2026-04-04T13:39:15.001Z</time></trkpt><trkpt lat="44.19610781939241" lon="11.498243405034845"><ele>273.14285714285717</ele><time>2026-04-04T13:39:20.001Z</time></trkpt><trkpt lat="44.1960553984937" lon="11.498321831703363"><ele>269.0</ele><time>2026-04-04T13:39:25.001Z</time></trkpt><trkpt lat="44.196023735143804" lon="11.498405043728752"><ele>269.0</ele><time>2026-04-04T13:39:30.001Z</time></trkpt><trkpt lat="44.195994032208596" lon="11.498493194668221"><ele>269.0</ele><time>2026-04-04T13:39:35.001Z</time></trkpt><trkpt lat="44.195969077472895" lon="11.498579100514542"><ele>269.0</ele><time>2026-04-04T13:39:40.001Z</time></trkpt><trkpt lat="44.19594435844287" lon="11.498666395860564"><ele>269.0</ele><time>2026-04-04T13:39:45.001Z</time></trkpt><trkpt lat="44.1959367603774" lon="11.498765262479253"><ele>269.0</ele><time>2026-04-04T13:39:50.001Z</time></trkpt><trkpt lat="44.195930386963646" lon="11.498869834198457"><ele>269.0</ele><time>2026-04-04T13:39:55.001Z</time></trkpt><trkpt lat="44.195923601292016" lon="11.498977021334245"><ele>269.0</ele><time>2026-04-04T13:40:01.001Z</time></trkpt><trkpt lat="44.19591631301522" lon="11.49907875131756"><ele>268.42857142857144</ele><time>2026-04-04T13:40:06.001Z</time></trkpt><trkpt lat="44.19589819076395" lon="11.49917796333176"><ele>267.8571428571429</ele><time>2026-04-04T13:40:11.001Z</time></trkpt><trkpt lat="44.19587175219958" lon="11.499261301083697"><ele>267.2857142857143</ele><time>2026-04-04T13:40:16.001Z</time></trkpt><trkpt lat="44.19584858967429" lon="11.49935372928828"><ele>266.7142857142857</ele><time>2026-04-04T13:40:22.001Z</time></trkpt><trkpt lat="44.195816728138595" lon="11.499432354629427"><ele>266.1428571428571</ele><time>2026-04-04T13:40:27.001Z</time></trkpt><trkpt lat="44.195784526032284" lon="11.499511872104804"><ele>265.57142857142856</ele><time>2026-04-04T13:40:32.001Z</time></trkpt><trkpt lat="44.195758930536854" lon="11.499601032186785"><ele>265.0</ele><time>2026-04-04T13:40:38.001Z</time></trkpt><trkpt lat="44.195743305278626" lon="11.499700728255135"><ele>264.99999999999994</ele><time>2026-04-04T13:40:45.001Z</time></trkpt><trkpt lat="44.19571183507602" lon="11.4997859694459"><ele>265.0</ele><time>2026-04-04T13:40:51.001Z</time></trkpt><trkpt lat="44.1956653707531" lon="11.499853602980389"><ele>265.0</ele><time>2026-04-04T13:40:56.001Z</time></trkpt><trkpt lat="44.19561868065092" lon="11.499923653751045"><ele>265.0</ele><time>2026-04-04T13:41:01.001Z</time></trkpt><trkpt lat="44.19559069644939" lon="11.500013970229288"><ele>265.0</ele><time>2026-04-04T13:41:06.001Z</time></trkpt><trkpt lat="44.19560973063177" lon="11.500103493976685"><ele>264.99999999999994</ele><time>2026-04-04T13:41:12.001Z</time></trkpt><trkpt lat="44.19559814204136" lon="11.500198314048228"><ele>265.0</ele><time>2026-04-04T13:41:16.001Z</time></trkpt><trkpt lat="44.195595237369666" lon="11.500294638368988"><ele>264.2857142857143</ele><time>2026-04-04T13:41:21.001Z</time></trkpt><trkpt lat="44.19560246986894" lon="11.500391626377432"><ele>263.57142857142856</ele><time>2026-04-04T13:41:26.001Z</time></trkpt><trkpt lat="44.19564414448396" lon="11.500457859934599"><ele>262.8571428571429</ele><time>2026-04-04T13:41:31.001Z</time></trkpt><trkpt lat="44.195628407340706" lon="11.50054447557289"><ele>262.1428571428571</ele><time>2026-04-04T13:41:38.001Z</time></trkpt><trkpt lat="44.19562595740004" lon="11.500648927612758"><ele>261.42857142857144</ele><time>2026-04-04T13:41:45.001Z</time></trkpt><trkpt lat="44.195632519462215" lon="11.500740622380567"><ele>260.7142857142857</ele><time>2026-04-04T13:41:50.001Z</time></trkpt><trkpt lat="44.19565862412611" lon="11.50082077847098"><ele>260.0</ele><time>2026-04-04T13:41:55.001Z</time></trkpt><trkpt lat="44.195683211248394" lon="11.500902231749997"><ele>260.00000000000006</ele><time>2026-04-04T13:42:10Z</time></trkpt><trkpt lat="44.195680999727074" lon="11.50099469902019"><ele>260.0</ele><time>2026-04-04T13:42:15Z</time></trkpt><trkpt lat="44.1956954484385" lon="11.501084219212983"><ele>260.0</ele><time>2026-04-04T13:42:21Z</time></trkpt><trkpt lat="44.19568634730026" lon="11.501181078051271"><ele>260.0</ele><time>2026-04-04T13:42:26Z</time></trkpt><trkpt lat="44.19568834775407" lon="11.501280069791097"><ele>260.0</ele><time>2026-04-04T13:42:31Z</time></trkpt><trkpt lat="44.195689594989446" lon="11.501389012628898"><ele>260.00000000000006</ele><time>2026-04-04T13:42:37Z</time></trkpt><trkpt lat="44.195696449681414" lon="11.501486195973465"><ele>260.0</ele><time>2026-04-04T13:42:42Z</time></trkpt><trkpt lat="44.1957060694032" lon="11.501582260103998"><ele>257.42857142857144</ele><time>2026-04-04T13:42:47Z</time></trkpt><trkpt lat="44.195710158103616" lon="11.50167532515259"><ele>254.85714285714286</ele><time>2026-04-04T13:42:52Z</time></trkpt><trkpt lat="44.195761144453826" lon="11.501738081810172"><ele>252.28571428571428</ele><time>2026-04-04T13:42:58Z</time></trkpt><trkpt lat="44.1957927085552" lon="11.501820704014529"><ele>249.71428571428572</ele><time>2026-04-04T13:43:04Z</time></trkpt><trkpt lat="44.195845949732906" lon="11.501869083149337"><ele>247.1428571428571</ele><time>2026-04-04T13:43:10Z</time></trkpt><trkpt lat="44.19590755772364" lon="11.501926382984358"><ele>244.57142857142856</ele><time>2026-04-04T13:43:17Z</time></trkpt><trkpt lat="44.195960815380715" lon="11.501983013448134"><ele>242.0</ele><time>2026-04-04T13:43:23Z</time></trkpt><trkpt lat="44.1960264321285" lon="11.502028249811513"><ele>242.0</ele><time>2026-04-04T13:43:29Z</time></trkpt><trkpt lat="44.1960907179873" lon="11.502074334979653"><ele>241.99999999999997</ele><time>2026-04-04T13:43:35Z</time></trkpt><trkpt lat="44.19615701586688" lon="11.50211571771514"><ele>242.0</ele><time>2026-04-04T13:43:41.001Z</time></trkpt><trkpt lat="44.19622442363407" lon="11.502163880590897"><ele>242.0</ele><time>2026-04-04T13:43:47.001Z</time></trkpt><trkpt lat="44.196280821340515" lon="11.502214424252982"><ele>241.99999999999997</ele><time>2026-04-04T13:43:53Z</time></trkpt><trkpt lat="44.196344598445556" lon="11.50227123273865"><ele>242.0</ele><time>2026-04-04T13:44:00Z</time></trkpt><trkpt lat="44.19640949644237" lon="11.50230834553064"><ele>242.0</ele><time>2026-04-04T13:44:05Z</time></trkpt><trkpt lat="44.196470387745926" lon="11.502353027047032"><ele>242.28571428571428</ele><time>2026-04-04T13:44:11Z</time></trkpt><trkpt lat="44.196538772984844" lon="11.5023870723514"><ele>242.57142857142856</ele><time>2026-04-04T13:44:20Z</time></trkpt><trkpt lat="44.19660123892773" lon="11.502410843751697"><ele>242.85714285714283</ele><time>2026-04-04T13:44:25Z</time></trkpt><trkpt lat="44.19667076737779" lon="11.502434906191805"><ele>243.1428571428571</ele><time>2026-04-04T13:44:31Z</time></trkpt><trkpt lat="44.19674104535999" lon="11.502434743458458"><ele>243.42857142857142</ele><time>2026-04-04T13:44:37Z</time></trkpt><trkpt lat="44.1968079158462" lon="11.502434644458535"><ele>243.71428571428567</ele><time>2026-04-04T13:44:42Z</time></trkpt><trkpt lat="44.196882193391886" lon="11.502406995394937"><ele>243.99999999999997</ele><time>2026-04-04T13:44:49Z</time></trkpt><trkpt lat="44.19694673514177" lon="11.502376616271693"><ele>243.99999999999997</ele><time>2026-04-04T13:44:54Z</time></trkpt><trkpt lat="44.19700117038555" lon="11.50232949091379"><ele>244.0</ele><time>2026-04-04T13:44:59Z</time></trkpt><trkpt lat="44.19706064416262" lon="11.502283948891458"><ele>243.99999999999997</ele><time>2026-04-04T13:45:05Z</time></trkpt><trkpt lat="44.1971137863344" lon="11.502236610349295"><ele>243.99999999999997</ele><time>2026-04-04T13:45:10Z</time></trkpt><trkpt lat="44.19717631931762" lon="11.50219447071126"><ele>244.0</ele><time>2026-04-04T13:45:16Z</time></trkpt><trkpt lat="44.19723487158708" lon="11.5021370238046"><ele>243.99999999999997</ele><time>2026-04-04T13:45:22Z</time></trkpt><trkpt lat="44.19729456508469" lon="11.502096248707653"><ele>243.99999999999997</ele><time>2026-04-04T13:45:27Z</time></trkpt><trkpt lat="44.197361326280074" lon="11.502047039714645"><ele>247.99999999999997</ele><time>2026-04-04T13:45:33Z</time></trkpt><trkpt lat="44.19742282027268" lon="11.502008022720203"><ele>252.0</ele><time>2026-04-04T13:45:40Z</time></trkpt><trkpt lat="44.19748504945647" lon="11.501970389261507"><ele>255.99999999999997</ele><time>2026-04-04T13:45:45Z</time></trkpt><trkpt lat="44.19755191700859" lon="11.501942097426507"><ele>260.0</ele><time>2026-04-04T13:45:51Z</time></trkpt><trkpt lat="44.19761600542842" lon="11.501935634590259"><ele>264.0</ele><time>2026-04-04T13:45:55Z</time></trkpt><trkpt lat="44.197686203488885" lon="11.501972693610982"><ele>267.99999999999994</ele><time>2026-04-04T13:46:00Z</time></trkpt><trkpt lat="44.19774757444915" lon="11.502009550895595"><ele>272.0</ele><time>2026-04-04T13:46:05Z</time></trkpt><trkpt lat="44.19780945380916" lon="11.502046519305308"><ele>271.99999999999994</ele><time>2026-04-04T13:46:10Z</time></trkpt><trkpt lat="44.19787824825738" lon="11.502075751513694"><ele>272.0</ele><time>2026-04-04T13:46:15Z</time></trkpt><trkpt lat="44.19794516245862" lon="11.502125004830077"><ele>272.0</ele><time>2026-04-04T13:46:21Z</time></trkpt><trkpt lat="44.19800481682741" lon="11.502162690904257"><ele>272.0</ele><time>2026-04-04T13:46:27Z</time></trkpt><trkpt lat="44.198071642943795" lon="11.502214559047683"><ele>272.0</ele><time>2026-04-04T13:46:32Z</time></trkpt><trkpt lat="44.198134399583644" lon="11.502232008693897"><ele>271.99999999999994</ele><time>2026-04-04T13:46:37Z</time></trkpt><trkpt lat="44.19817445710586" lon="11.50230256546373"><ele>272.0</ele><time>2026-04-04T13:46:43Z</time></trkpt><trkpt lat="44.19822873474948" lon="11.502360818756788"><ele>268.99999999999994</ele><time>2026-04-04T13:46:51Z</time></trkpt><trkpt lat="44.198283094033094" lon="11.5024325563565"><ele>266.0</ele><time>2026-04-04T13:46:58Z</time></trkpt><trkpt lat="44.19833831220497" lon="11.502501847060543"><ele>263.0</ele><time>2026-04-04T13:47:04Z</time></trkpt><trkpt lat="44.19840102275156" lon="11.502548352521636"><ele>260.0</ele><time>2026-04-04T13:47:10Z</time></trkpt><trkpt lat="44.19846851446817" lon="11.502596355677845"><ele>257.0</ele><time>2026-04-04T13:47:16Z</time></trkpt><trkpt lat="44.19853525882869" lon="11.502611147923862"><ele>253.99999999999997</ele><time>2026-04-04T13:47:21Z</time></trkpt><trkpt lat="44.1985976724526" lon="11.502634308028489"><ele>250.99999999999997</ele><time>2026-04-04T13:47:26Z</time></trkpt><trkpt lat="44.198660014014116" lon="11.502657593722251"><ele>250.99999999999997</ele><time>2026-04-04T13:47:31Z</time></trkpt><trkpt lat="44.19872221346259" lon="11.502674886681268"><ele>251.0</ele><time>2026-04-04T13:47:35.999Z</time></trkpt><trkpt lat="44.19878640979013" lon="11.502687736856556"><ele>250.99999999999997</ele><time>2026-04-04T13:47:40.999Z</time></trkpt><trkpt lat="44.19885302604307" lon="11.502702003668231"><ele>250.99999999999997</ele><time>2026-04-04T13:47:45.999Z</time></trkpt><trkpt lat="44.198916087397635" lon="11.5027222339435"><ele>251.0</ele><time>2026-04-04T13:47:50.999Z</time></trkpt><trkpt lat="44.19897988863902" lon="11.50273907656477"><ele>250.99999999999997</ele><time>2026-04-04T13:47:56Z</time></trkpt><trkpt lat="44.19904462051962" lon="11.502757067983573"><ele>250.99999999999997</ele><time>2026-04-04T13:48:02Z</time></trkpt><trkpt lat="44.19911482996667" lon="11.502738271342297"><ele>253.1428571428571</ele><time>2026-04-04T13:48:08Z</time></trkpt><trkpt lat="44.199172415842334" lon="11.50270017690547"><ele>255.28571428571428</ele><time>2026-04-04T13:48:13Z</time></trkpt><trkpt lat="44.19922961913084" lon="11.502645887941844"><ele>257.42857142857144</ele><time>2026-04-04T13:48:18Z</time></trkpt><trkpt lat="44.19928713751416" lon="11.50259936097674"><ele>259.57142857142856</ele><time>2026-04-04T13:48:23Z</time></trkpt><trkpt lat="44.19933084827617" lon="11.502528448236172"><ele>261.7142857142857</ele><time>2026-04-04T13:48:28Z</time></trkpt><trkpt lat="44.199390055740906" lon="11.502477811894487"><ele>263.85714285714283</ele><time>2026-04-04T13:48:33Z</time></trkpt><trkpt lat="44.19945624665248" lon="11.502456410916974"><ele>266.0</ele><time>2026-04-04T13:48:38Z</time></trkpt><trkpt lat="44.1995176498713" lon="11.502436133483599"><ele>266.0</ele><time>2026-04-04T13:48:43Z</time></trkpt><trkpt lat="44.199584663015465" lon="11.502459435963207"><ele>266.0</ele><time>2026-04-04T13:48:48Z</time></trkpt><trkpt lat="44.19965509429496" lon="11.502478981361921"><ele>266.0</ele><time>2026-04-04T13:48:54Z</time></trkpt><trkpt lat="44.19972428756563" lon="11.502501421929571"><ele>266.0</ele><time>2026-04-04T13:49:00Z</time></trkpt><trkpt lat="44.199783860195545" lon="11.50253411251483"><ele>266.0</ele><time>2026-04-04T13:49:05Z</time></trkpt><trkpt lat="44.19984471907991" lon="11.50259030890907"><ele>266.0</ele><time>2026-04-04T13:49:11Z</time></trkpt><trkpt lat="44.199893051969354" lon="11.502658070231686"><ele>266.0</ele><time>2026-04-04T13:49:16Z</time></trkpt><trkpt lat="44.19993312530784" lon="11.502740158486278"><ele>266.85714285714283</ele><time>2026-04-04T13:49:22Z</time></trkpt><trkpt lat="44.19997405012575" lon="11.502820472558918"><ele>267.7142857142857</ele><time>2026-04-04T13:49:27.999Z</time></trkpt><trkpt lat="44.20001728342656" lon="11.502900950453816"><ele>268.57142857142856</ele><time>2026-04-04T13:49:33.999Z</time></trkpt><trkpt lat="44.20005795898432" lon="11.502973413549455"><ele>269.42857142857144</ele><time>2026-04-04T13:49:39.999Z</time></trkpt><trkpt lat="44.20011737868927" lon="11.503029220059112"><ele>270.2857142857143</ele><time>2026-04-04T13:49:46.999Z</time></trkpt><trkpt lat="44.20018099688829" lon="11.50305971991357"><ele>271.1428571428571</ele><time>2026-04-04T13:49:53.999Z</time></trkpt><trkpt lat="44.20024029220128" lon="11.503090524937232"><ele>272.0</ele><time>2026-04-04T13:50:01Z</time></trkpt><trkpt lat="44.2003070174945" lon="11.50310311493356"><ele>269.4285714285714</ele><time>2026-04-04T13:50:07Z</time></trkpt><trkpt lat="44.20037620244938" lon="11.50311733368842"><ele>266.85714285714283</ele><time>2026-04-04T13:50:14Z</time></trkpt><trkpt lat="44.20045759004826" lon="11.503123215079908"><ele>264.2857142857143</ele><time>2026-04-04T13:50:19Z</time></trkpt><trkpt lat="44.200524993176835" lon="11.503146071385979"><ele>261.71428571428567</ele><time>2026-04-04T13:50:24Z</time></trkpt><trkpt lat="44.200587939991024" lon="11.50314915553735"><ele>259.1428571428571</ele><time>2026-04-04T13:50:28Z</time></trkpt><trkpt lat="44.20065954550201" lon="11.503164012394045"><ele>256.57142857142856</ele><time>2026-04-04T13:50:33Z</time></trkpt><trkpt lat="44.200723351726694" lon="11.503172477273196"><ele>254.0</ele><time>2026-04-04T13:50:38Z</time></trkpt><trkpt lat="44.20078933626851" lon="11.503156907735441"><ele>254.0</ele><time>2026-04-04T13:50:43Z</time></trkpt><trkpt lat="44.20085357920595" lon="11.503139788729861"><ele>254.0</ele><time>2026-04-04T13:50:48Z</time></trkpt><trkpt lat="44.200928709346044" lon="11.503148739818029"><ele>254.0</ele><time>2026-04-04T13:50:54Z</time></trkpt><trkpt lat="44.200992551868" lon="11.503163895958425"><ele>254.0</ele><time>2026-04-04T13:50:59Z</time></trkpt><trkpt lat="44.20106210285356" lon="11.503162104593754"><ele>254.0</ele><time>2026-04-04T13:51:04Z</time></trkpt><trkpt lat="44.20113334351229" lon="11.503182137978147"><ele>254.0</ele><time>2026-04-04T13:51:10Z</time></trkpt><trkpt lat="44.20121183370538" lon="11.503181926799707"><ele>254.0</ele><time>2026-04-04T13:51:16Z</time></trkpt><trkpt lat="44.20128295244631" lon="11.50317579687647"><ele>254.0</ele><time>2026-04-04T13:51:21Z</time></trkpt><trkpt lat="44.201346832570835" lon="11.503177247919353"><ele>254.0</ele><time>2026-04-04T13:51:26Z</time></trkpt><trkpt lat="44.20141476136234" lon="11.503190284376418"><ele>254.0</ele><time>2026-04-04T13:51:32Z</time></trkpt><trkpt lat="44.20148485449696" lon="11.503195323297088"><ele>254.0</ele><time>2026-04-04T13:51:38.999Z</time></trkpt><trkpt lat="44.20154838914279" lon="11.50319021607071"><ele>254.0</ele><time>2026-04-04T13:51:43.999Z</time></trkpt><trkpt lat="44.20160691323714" lon="11.503236669797626"><ele>254.0</ele><time>2026-04-04T13:51:49.999Z</time></trkpt><trkpt lat="44.20167892544942" lon="11.50322197224959"><ele>254.0</ele><time>2026-04-04T13:51:55.999Z</time></trkpt><trkpt lat="44.20175026842064" lon="11.503243519948931"><ele>253.85714285714286</ele><time>2026-04-04T13:52:01.999Z</time></trkpt><trkpt lat="44.20182028676316" lon="11.503250104496543"><ele>253.71428571428572</ele><time>2026-04-04T13:52:07Z</time></trkpt><trkpt lat="44.20188725587042" lon="11.503259818390767"><ele>253.57142857142858</ele><time>2026-04-04T13:52:12Z</time></trkpt><trkpt lat="44.20196166650506" lon="11.503270859168584"><ele>253.42857142857144</ele><time>2026-04-04T13:52:18Z</time></trkpt><trkpt lat="44.202034035211454" lon="11.503278233671265"><ele>253.28571428571428</ele><time>2026-04-04T13:52:24Z</time></trkpt><trkpt lat="44.20209892604786" lon="11.50329152473379"><ele>253.14285714285717</ele><time>2026-04-04T13:52:29Z</time></trkpt><trkpt lat="44.20216850067205" lon="11.503319764044743"><ele>253.00000000000003</ele><time>2026-04-04T13:52:35Z</time></trkpt><trkpt lat="44.20224289328742" lon="11.503307328271655"><ele>253.00000000000003</ele><time>2026-04-04T13:52:41Z</time></trkpt><trkpt lat="44.20230926678681" lon="11.503286098875089"><ele>253.0</ele><time>2026-04-04T13:52:46Z</time></trkpt><trkpt lat="44.20237500688773" lon="11.503264650182386"><ele>253.00000000000003</ele><time>2026-04-04T13:52:51Z</time></trkpt><trkpt lat="44.20243886683048" lon="11.503264417884912"><ele>253.00000000000003</ele><time>2026-04-04T13:52:56Z</time></trkpt><trkpt lat="44.20250052681918" lon="11.503242965804592"><ele>253.0</ele><time>2026-04-04T13:53:02Z</time></trkpt><trkpt lat="44.20256365714453" lon="11.503219998441178"><ele>253.00000000000003</ele><time>2026-04-04T13:53:07Z</time></trkpt><trkpt lat="44.20262758302522" lon="11.5031655275521"><ele>253.00000000000003</ele><time>2026-04-04T13:53:13Z</time></trkpt><trkpt lat="44.20268043711857" lon="11.503114811360348"><ele>252.71428571428575</ele><time>2026-04-04T13:53:18Z</time></trkpt><trkpt lat="44.20273927289865" lon="11.503048738607434"><ele>252.42857142857144</ele><time>2026-04-04T13:53:24Z</time></trkpt><trkpt lat="44.20280292776978" lon="11.503004099695143"><ele>252.14285714285714</ele><time>2026-04-04T13:53:30Z</time></trkpt><trkpt lat="44.20286794139371" lon="11.502983119897783"><ele>251.85714285714286</ele><time>2026-04-04T13:53:35Z</time></trkpt><trkpt lat="44.20293048540447" lon="11.503001444288884"><ele>251.57142857142856</ele><time>2026-04-04T13:53:40Z</time></trkpt><trkpt lat="44.20298946992496" lon="11.503039135037094"><ele>251.28571428571425</ele><time>2026-04-04T13:53:46Z</time></trkpt><trkpt lat="44.203056071669636" lon="11.503029164144053"><ele>250.99999999999997</ele><time>2026-04-04T13:53:50Z</time></trkpt><trkpt lat="44.203114275647984" lon="11.503066834066075"><ele>249.85714285714283</ele><time>2026-04-04T13:53:53.999Z</time></trkpt><trkpt lat="44.20317921413075" lon="11.503113031173461"><ele>248.71428571428572</ele><time>2026-04-04T13:53:58.999Z</time></trkpt><trkpt lat="44.20323745201256" lon="11.503147687257092"><ele>247.57142857142856</ele><time>2026-04-04T13:54:03.999Z</time></trkpt><trkpt lat="44.20329992644623" lon="11.503173084839071"><ele>246.42857142857142</ele><time>2026-04-04T13:54:09.999Z</time></trkpt><trkpt lat="44.20337213673787" lon="11.503168457623394"><ele>245.28571428571428</ele><time>2026-04-04T13:54:16Z</time></trkpt><trkpt lat="44.20344196352495" lon="11.503168120094871"><ele>244.14285714285714</ele><time>2026-04-04T13:54:22Z</time></trkpt><trkpt lat="44.20351521440178" lon="11.503169277346755"><ele>243.0</ele><time>2026-04-04T13:54:28Z</time></trkpt><trkpt lat="44.20357850268577" lon="11.50316776853663"><ele>243.0</ele><time>2026-04-04T13:54:33Z</time></trkpt><trkpt lat="44.20365174278481" lon="11.503156184175147"><ele>243.0</ele><time>2026-04-04T13:54:39Z</time></trkpt><trkpt lat="44.20371476689888" lon="11.503144991329764"><ele>243.0</ele><time>2026-04-04T13:54:44Z</time></trkpt><trkpt lat="44.203785795999366" lon="11.503141968163247"><ele>243.0</ele><time>2026-04-04T13:54:50Z</time></trkpt><trkpt lat="44.20385949666444" lon="11.503125847936257"><ele>243.0</ele><time>2026-04-04T13:54:56Z</time></trkpt><trkpt lat="44.20393314786423" lon="11.503123454148177"><ele>243.0</ele><time>2026-04-04T13:55:02Z</time></trkpt><trkpt lat="44.20400799996392" lon="11.503123823642452"><ele>243.0</ele><time>2026-04-04T13:55:08Z</time></trkpt><trkpt lat="44.20407382008903" lon="11.503122957914732"><ele>243.28571428571428</ele><time>2026-04-04T13:55:13Z</time></trkpt><trkpt lat="44.2041389643479" lon="11.503120040749335"><ele>243.57142857142858</ele><time>2026-04-04T13:55:18Z</time></trkpt><trkpt lat="44.204203015251075" lon="11.503129724221958"><ele>243.85714285714286</ele><time>2026-04-04T13:55:23Z</time></trkpt><trkpt lat="44.20426793842784" lon="11.503138433627688"><ele>244.14285714285714</ele><time>2026-04-04T13:55:28Z</time></trkpt><trkpt lat="44.20433242755061" lon="11.503146276323138"><ele>244.42857142857144</ele><time>2026-04-04T13:55:33Z</time></trkpt><trkpt lat="44.20439486667447" lon="11.503161657215975"><ele>244.71428571428572</ele><time>2026-04-04T13:55:38Z</time></trkpt><trkpt lat="44.20445840805609" lon="11.503173203357688"><ele>245.0</ele><time>2026-04-04T13:55:43Z</time></trkpt><trkpt lat="44.20453238325598" lon="11.503196939309092"><ele>245.0</ele><time>2026-04-04T13:55:49Z</time></trkpt><trkpt lat="44.20460033550471" lon="11.503202884268301"><ele>245.0</ele><time>2026-04-04T13:55:54Z</time></trkpt><trkpt lat="44.204666413851236" lon="11.503214751046576"><ele>245.0</ele><time>2026-04-04T13:55:59Z</time></trkpt><trkpt lat="44.204729458304" lon="11.503226067504524"><ele>245.0</ele><time>2026-04-04T13:56:03.999Z</time></trkpt><trkpt lat="44.20480506455273" lon="11.503239914682881"><ele>245.0</ele><time>2026-04-04T13:56:09.999Z</time></trkpt><trkpt lat="44.204880173916585" lon="11.503254948936924"><ele>245.0</ele><time>2026-04-04T13:56:15.999Z</time></trkpt><trkpt lat="44.204945130113074" lon="11.503260311020586"><ele>245.0</ele><time>2026-04-04T13:56:21Z</time></trkpt><trkpt lat="44.20501487658705" lon="11.503261119894841"><ele>244.71428571428572</ele><time>2026-04-04T13:56:27Z</time></trkpt><trkpt lat="44.20508542020036" lon="11.503279955821107"><ele>244.42857142857144</ele><time>2026-04-04T13:56:33Z</time></trkpt><trkpt lat="44.20515450904987" lon="11.503291549919732"><ele>244.14285714285714</ele><time>2026-04-04T13:56:39Z</time></trkpt><trkpt lat="44.20521744045285" lon="11.503312678712476"><ele>243.85714285714286</ele><time>2026-04-04T13:56:44Z</time></trkpt><trkpt lat="44.205285090738926" lon="11.503311847136947"><ele>243.57142857142858</ele><time>2026-04-04T13:56:49Z</time></trkpt><trkpt lat="44.205355292190696" lon="11.503321594670224"><ele>243.28571428571428</ele><time>2026-04-04T13:56:55Z</time></trkpt><trkpt lat="44.205418075241774" lon="11.50333085222479"><ele>243.0</ele><time>2026-04-04T13:57:00Z</time></trkpt><trkpt lat="44.2054839581874" lon="11.503330263044703"><ele>243.0</ele><time>2026-04-04T13:57:05Z</time></trkpt><trkpt lat="44.205556920128956" lon="11.503328210898008"><ele>243.0</ele><time>2026-04-04T13:57:11Z</time></trkpt><trkpt lat="44.20562871880147" lon="11.503330851227435"><ele>243.0</ele><time>2026-04-04T13:57:17Z</time></trkpt><trkpt lat="44.20570081477948" lon="11.503345873210572"><ele>243.0</ele><time>2026-04-04T13:57:23Z</time></trkpt><trkpt lat="44.205765443433535" lon="11.50334828419905"><ele>243.0</ele><time>2026-04-04T13:57:28Z</time></trkpt><trkpt lat="44.20583861351047" lon="11.503351430592698"><ele>243.0</ele><time>2026-04-04T13:57:34Z</time></trkpt><trkpt lat="44.20591312285938" lon="11.503352600689027"><ele>243.0</ele><time>2026-04-04T13:57:40Z</time></trkpt><trkpt lat="44.205987018527615" lon="11.503372343618828"><ele>242.71428571428572</ele><time>2026-04-04T13:57:46Z</time></trkpt><trkpt lat="44.206060519753564" lon="11.503380506820157"><ele>242.42857142857144</ele><time>2026-04-04T13:57:52Z</time></trkpt><trkpt lat="44.20613336022462" lon="11.503388529695744"><ele>242.14285714285717</ele><time>2026-04-04T13:57:58Z</time></trkpt><trkpt lat="44.20619775662153" lon="11.50339200577602"><ele>241.85714285714286</ele><time>2026-04-04T13:58:03Z</time></trkpt><trkpt lat="44.20627087620548" lon="11.503410072320026"><ele>241.5714285714286</ele><time>2026-04-04T13:58:08.999Z</time></trkpt><trkpt lat="44.206344915158155" lon="11.503416301814857"><ele>241.2857142857143</ele><time>2026-04-04T13:58:14.999Z</time></trkpt><trkpt lat="44.20641501363238" lon="11.50343803669052"><ele>241.0</ele><time>2026-04-04T13:58:20.999Z</time></trkpt><trkpt lat="44.20648766029343" lon="11.50344416337898"><ele>241.2857142857143</ele><time>2026-04-04T13:58:27Z</time></trkpt><trkpt lat="44.206561261134205" lon="11.50345912298344"><ele>241.5714285714286</ele><time>2026-04-04T13:58:33Z</time></trkpt><trkpt lat="44.206632694032066" lon="11.503458323906125"><ele>241.85714285714286</ele><time>2026-04-04T13:58:39Z</time></trkpt><trkpt lat="44.20670590024939" lon="11.503473102059283"><ele>242.14285714285717</ele><time>2026-04-04T13:58:45Z</time></trkpt><trkpt lat="44.2067692735115" lon="11.503469744637373"><ele>242.42857142857144</ele><time>2026-04-04T13:58:50Z</time></trkpt><trkpt lat="44.20684279738345" lon="11.503470558450655"><ele>242.71428571428572</ele><time>2026-04-04T13:58:56Z</time></trkpt><trkpt lat="44.206916392828724" lon="11.503486159588139"><ele>243.0</ele><time>2026-04-04T13:59:02Z</time></trkpt><trkpt lat="44.20698987958285" lon="11.503503648868696"><ele>243.0</ele><time>2026-04-04T13:59:08Z</time></trkpt><trkpt lat="44.20706108217643" lon="11.50350765198307"><ele>243.0</ele><time>2026-04-04T13:59:14Z</time></trkpt><trkpt lat="44.20713157767797" lon="11.503519279899544"><ele>243.0</ele><time>2026-04-04T13:59:20Z</time></trkpt><trkpt lat="44.207201480547894" lon="11.503530888859153"><ele>243.0</ele><time>2026-04-04T13:59:26Z</time></trkpt><trkpt lat="44.20727137802021" lon="11.503530927545377"><ele>243.0</ele><time>2026-04-04T13:59:32Z</time></trkpt><trkpt lat="44.2073444334641" lon="11.503553808389437"><ele>243.0</ele><time>2026-04-04T13:59:38Z</time></trkpt><trkpt lat="44.20740799671512" lon="11.5035575622784"><ele>243.0</ele><time>2026-04-04T13:59:43Z</time></trkpt><trkpt lat="44.20747890745393" lon="11.503559794403136"><ele>242.85714285714283</ele><time>2026-04-04T13:59:48.999Z</time></trkpt><trkpt lat="44.20754891263643" lon="11.50358177960787"><ele>242.71428571428572</ele><time>2026-04-04T13:59:54.999Z</time></trkpt><trkpt lat="44.207619246877314" lon="11.503595438759438"><ele>242.57142857142856</ele><time>2026-04-04T14:00:00.999Z</time></trkpt><trkpt lat="44.20768414346413" lon="11.503605869602133"><ele>242.42857142857142</ele><time>2026-04-04T14:00:05.999Z</time></trkpt><trkpt lat="44.20775561892181" lon="11.503631172545434"><ele>242.28571428571428</ele><time>2026-04-04T14:00:11.999Z</time></trkpt><trkpt lat="44.20782354181603" lon="11.503675486677688"><ele>242.14285714285714</ele><time>2026-04-04T14:00:17.999Z</time></trkpt><trkpt lat="44.207899094698554" lon="11.503672903120718"><ele>242.0</ele><time>2026-04-04T14:00:22.999Z</time></trkpt><trkpt lat="44.20796481539919" lon="11.503694012167395"><ele>242.0</ele><time>2026-04-04T14:00:27.999Z</time></trkpt><trkpt lat="44.20802220231173" lon="11.503730309095856"><ele>241.99999999999997</ele><time>2026-04-04T14:00:34Z</time></trkpt><trkpt lat="44.20808708012626" lon="11.50376136902285"><ele>242.0</ele><time>2026-04-04T14:00:39Z</time></trkpt><trkpt lat="44.208148420667186" lon="11.503785055100352"><ele>242.0</ele><time>2026-04-04T14:00:45Z</time></trkpt><trkpt lat="44.20822120054179" lon="11.503792190035346"><ele>241.99999999999997</ele><time>2026-04-04T14:00:51Z</time></trkpt><trkpt lat="44.208270694383735" lon="11.503717437693313"><ele>242.0</ele><time>2026-04-04T14:00:56Z</time></trkpt><trkpt lat="44.208322436258996" lon="11.503644487108595"><ele>242.0</ele><time>2026-04-04T14:01:02Z</time></trkpt><trkpt lat="44.20835703476617" lon="11.503562401473742"><ele>241.42857142857142</ele><time>2026-04-04T14:01:07Z</time></trkpt><trkpt lat="44.208393986950824" lon="11.503481307469274"><ele>240.85714285714283</ele><time>2026-04-04T14:01:12Z</time></trkpt><trkpt lat="44.20845121129909" lon="11.503431515321433"><ele>240.28571428571428</ele><time>2026-04-04T14:01:17Z</time></trkpt><trkpt lat="44.208517540769776" lon="11.503392283702622"><ele>239.71428571428572</ele><time>2026-04-04T14:01:23Z</time></trkpt><trkpt lat="44.20860165159828" lon="11.503389122073154"><ele>239.14285714285714</ele><time>2026-04-04T14:01:28Z</time></trkpt><trkpt lat="44.20866221086526" lon="11.503417389441568"><ele>238.57142857142856</ele><time>2026-04-04T14:01:32Z</time></trkpt><trkpt lat="44.208736641012045" lon="11.503442685723885"><ele>238.0</ele><time>2026-04-04T14:01:37Z</time></trkpt><trkpt lat="44.20880271327759" lon="11.503463735782915"><ele>238.0</ele><time>2026-04-04T14:01:42Z</time></trkpt><trkpt lat="44.20886136675991" lon="11.503496092128772"><ele>238.0</ele><time>2026-04-04T14:01:48Z</time></trkpt><trkpt lat="44.20892157485698" lon="11.503537704176638"><ele>238.0</ele><time>2026-04-04T14:01:52.999Z</time></trkpt><trkpt lat="44.20898817524241" lon="11.503561876578116"><ele>238.0</ele><time>2026-04-04T14:01:58.999Z</time></trkpt><trkpt lat="44.209053562069045" lon="11.503587203622784"><ele>238.0</ele><time>2026-04-04T14:02:03.999Z</time></trkpt><trkpt lat="44.209115427257835" lon="11.50361941508999"><ele>238.0</ele><time>2026-04-04T14:02:09.999Z</time></trkpt><trkpt lat="44.20918244140196" lon="11.503668979177453"><ele>238.0</ele><time>2026-04-04T14:02:15.999Z</time></trkpt><trkpt lat="44.209252923916345" lon="11.503705055663998"><ele>236.33333333333331</ele><time>2026-04-04T14:02:20.999Z</time></trkpt><trkpt lat="44.20931300196715" lon="11.503733181912466"><ele>234.66666666666666</ele><time>2026-04-04T14:02:26.999Z</time></trkpt><trkpt lat="44.20937867130317" lon="11.503804308539461"><ele>233.0</ele><time>2026-04-04T14:02:32.999Z</time></trkpt><trkpt lat="44.209430017977525" lon="11.503879414169369"><ele>231.33333333333331</ele><time>2026-04-04T14:02:39Z</time></trkpt><trkpt lat="44.20947997328534" lon="11.50395150939805"><ele>229.66666666666666</ele><time>2026-04-04T14:02:44Z</time></trkpt><trkpt lat="44.209530662465795" lon="11.504026284602267"><ele>228.0</ele><time>2026-04-04T14:02:51Z</time></trkpt><trkpt lat="44.20956293708995" lon="11.50414987352394"><ele>227.28571428571428</ele><time>2026-04-04T14:02:57Z</time></trkpt><trkpt lat="44.209616496436745" lon="11.504224822281978"><ele>226.57142857142856</ele><time>2026-04-04T14:03:03Z</time></trkpt><trkpt lat="44.209658336400736" lon="11.504299408129272"><ele>225.85714285714283</ele><time>2026-04-04T14:03:08Z</time></trkpt><trkpt lat="44.209704594384945" lon="11.504384968566853"><ele>225.14285714285714</ele><time>2026-04-04T14:03:14Z</time></trkpt><trkpt lat="44.209746148450726" lon="11.5044553521805"><ele>224.42857142857142</ele><time>2026-04-04T14:03:19Z</time></trkpt><trkpt lat="44.209777837349705" lon="11.504541359698333"><ele>223.71428571428572</ele><time>2026-04-04T14:03:24Z</time></trkpt><trkpt lat="44.20978672277047" lon="11.504649444308916"><ele>223.0</ele><time>2026-04-04T14:03:29Z</time></trkpt><trkpt lat="44.20981436476452" lon="11.5047299234799"><ele>222.85714285714286</ele><time>2026-04-04T14:03:34Z</time></trkpt><trkpt lat="44.209863286708924" lon="11.504798312060798"><ele>222.71428571428572</ele><time>2026-04-04T14:03:39Z</time></trkpt><trkpt lat="44.20990818025645" lon="11.504871099866689"><ele>222.57142857142856</ele><time>2026-04-04T14:03:43.999Z</time></trkpt><trkpt lat="44.209942328573156" lon="11.504961364890733"><ele>222.42857142857144</ele><time>2026-04-04T14:03:49.999Z</time></trkpt><trkpt lat="44.20999131865098" lon="11.50504360739073"><ele>222.2857142857143</ele><time>2026-04-04T14:03:55.999Z</time></trkpt><trkpt lat="44.21004939376461" lon="11.505092237939932"><ele>222.14285714285714</ele><time>2026-04-04T14:04:01.999Z</time></trkpt><trkpt lat="44.21012381007597" lon="11.50513466682744"><ele>222.0</ele><time>2026-04-04T14:04:07.999Z</time></trkpt><trkpt lat="44.21018800540677" lon="11.505165596254685"><ele>222.0</ele><time>2026-04-04T14:04:13.999Z</time></trkpt><trkpt lat="44.210245157042664" lon="11.50521534417503"><ele>222.0</ele><time>2026-04-04T14:04:18.999Z</time></trkpt><trkpt lat="44.21031406913597" lon="11.505237443304773"><ele>222.0</ele><time>2026-04-04T14:04:23.999Z</time></trkpt><trkpt lat="44.21037731415419" lon="11.505267028862027"><ele>222.0</ele><time>2026-04-04T14:04:30.999Z</time></trkpt><trkpt lat="44.21044465575818" lon="11.50531609135739"><ele>222.0</ele><time>2026-04-04T14:04:35.999Z</time></trkpt><trkpt lat="44.21050437509987" lon="11.50537389266985"><ele>222.0</ele><time>2026-04-04T14:04:44Z</time></trkpt><trkpt lat="44.210572238825094" lon="11.505382636302237"><ele>222.0</ele><time>2026-04-04T14:04:50Z</time></trkpt><trkpt lat="44.210635060833496" lon="11.50541971662358"><ele>219.85714285714286</ele><time>2026-04-04T14:04:56Z</time></trkpt><trkpt lat="44.21069341866273" lon="11.505464738047651"><ele>217.71428571428572</ele><time>2026-04-04T14:05:01Z</time></trkpt><trkpt lat="44.21076583015828" lon="11.505502873284678"><ele>215.57142857142858</ele><time>2026-04-04T14:05:06Z</time></trkpt><trkpt lat="44.210830109933134" lon="11.505537129640473"><ele>213.42857142857144</ele><time>2026-04-04T14:05:11Z</time></trkpt><trkpt lat="44.21089417314328" lon="11.505526360808592"><ele>211.28571428571428</ele><time>2026-04-04T14:05:21Z</time></trkpt><trkpt lat="44.21096321358653" lon="11.505503876071973"><ele>209.14285714285717</ele><time>2026-04-04T14:05:32Z</time></trkpt><trkpt lat="44.21104350425911" lon="11.505465852807783"><ele>207.0</ele><time>2026-04-04T14:05:38.999Z</time></trkpt><trkpt lat="44.211104218471625" lon="11.505431717678047"><ele>207.00000000000003</ele><time>2026-04-04T14:05:44.999Z</time></trkpt><trkpt lat="44.21116752397" lon="11.505429423627351"><ele>207.0</ele><time>2026-04-04T14:05:47.999Z</time></trkpt><trkpt lat="44.21122250497367" lon="11.505377162896904"><ele>207.0</ele><time>2026-04-04T14:05:50.999Z</time></trkpt><trkpt lat="44.21128913299904" lon="11.5053545391646"><ele>207.0</ele><time>2026-04-04T14:05:56.999Z</time></trkpt><trkpt lat="44.21135061851037" lon="11.505287831233332"><ele>207.0</ele><time>2026-04-04T14:06:02.999Z</time></trkpt><trkpt lat="44.211418970917364" lon="11.505243256458714"><ele>207.00000000000003</ele><time>2026-04-04T14:06:09.999Z</time></trkpt><trkpt lat="44.21149708513715" lon="11.505232094743379"><ele>207.0</ele><time>2026-04-04T14:06:13.999Z</time></trkpt><trkpt lat="44.21155513518625" lon="11.505185089907851"><ele>208.85714285714286</ele><time>2026-04-04T14:06:19.999Z</time></trkpt><trkpt lat="44.211608618944055" lon="11.505124144465547"><ele>210.71428571428572</ele><time>2026-04-04T14:06:26.999Z</time></trkpt><trkpt lat="44.21166986056644" lon="11.505085554478683"><ele>212.57142857142856</ele><time>2026-04-04T14:06:32.999Z</time></trkpt><trkpt lat="44.211731022945195" lon="11.505046294395274"><ele>214.42857142857144</ele><time>2026-04-04T14:06:37.999Z</time></trkpt><trkpt lat="44.211798843832845" lon="11.505046789707542"><ele>216.28571428571428</ele><time>2026-04-04T14:06:42.999Z</time></trkpt><trkpt lat="44.21184477278199" lon="11.505112803313136"><ele>218.14285714285714</ele><time>2026-04-04T14:06:57.999Z</time></trkpt><trkpt lat="44.21191434911121" lon="11.505070819040965"><ele>220.0</ele><time>2026-04-04T14:07:04Z</time></trkpt><trkpt lat="44.211974976294606" lon="11.505031694432152"><ele>219.99999999999997</ele><time>2026-04-04T14:07:10Z</time></trkpt><trkpt lat="44.21204198001052" lon="11.505005424064592"><ele>220.0</ele><time>2026-04-04T14:07:16Z</time></trkpt><trkpt lat="44.21209214205548" lon="11.50507462839958"><ele>220.0</ele><time>2026-04-04T14:07:27Z</time></trkpt><trkpt lat="44.212130302181826" lon="11.505156416697893"><ele>220.0</ele><time>2026-04-04T14:07:29Z</time></trkpt><trkpt lat="44.21216224789247" lon="11.505234521866466"><ele>220.0</ele><time>2026-04-04T14:07:35Z</time></trkpt><trkpt lat="44.21221155041338" lon="11.505289468891622"><ele>219.99999999999997</ele><time>2026-04-04T14:07:41Z</time></trkpt><trkpt lat="44.21223569039526" lon="11.505376844572059"><ele>220.0</ele><time>2026-04-04T14:07:47.999Z</time></trkpt><trkpt lat="44.212276488660216" lon="11.505447117533967"><ele>207.0</ele><time>2026-04-04T14:07:55.999Z</time></trkpt><trkpt lat="44.212332942068116" lon="11.505499122680428"><ele>204.0</ele><time>2026-04-04T14:08:04.999Z</time></trkpt></trkseg></trk></gpx>